Latest Flight | Flight Log | Data Trends | Login | Join FlightData.com!
Date Range From To
Export: Google Earth
Flight Log - N230WA - Click on row to view flight. Click on header to sort.
Date Origin Dest Depart Arrive Hobbs Flight Time Flight Distance Fuel Fuel/hr Fuel/nm Altitude Gnd Speed
Sat, Oct 3, 2020 W93 KJYO 20:53 21:34 0.62 hrs 0.44 hrs 61.98 nm 5.44 gal 8.75 gal/hr 0.09 gal/nm 4617 msl 127 kts
Sat, Oct 3, 2020 KJYO W93 16:43 17:31 0.77 hrs 0.46 hrs 62.17 nm 5.64 gal 7.32 gal/hr 0.09 gal/nm 3513 msl 127 kts
Thu, Oct 1, 2020     16:26 16:27 0.02 hrs 0.00 hrs 0.00 nm 16.79 gal 755.55 gal/hr 0.00 gal/nm 0 msl 0 kts
Mon, Sep 28, 2020 KJYO KJYO 22:47 01:06 2.15 hrs 1.44 hrs 191.24 nm 17.65 gal 8.22 gal/hr 0.09 gal/nm 3029 msl 122 kts
Sun, Sep 27, 2020 KHGR KJYO 18:29 19:06 0.53 hrs 0.27 hrs 39.24 nm 4.28 gal 8.12 gal/hr 0.11 gal/nm 3116 msl 113 kts
Sun, Sep 27, 2020 KJYO KHGR 16:33 17:53 1.28 hrs 0.70 hrs 92.26 nm 9.35 gal 7.30 gal/hr 0.10 gal/nm 4019 msl 125 kts
Sun, Sep 27, 2020     16:24 16:25 0.02 hrs 0.00 hrs 0.00 nm 0.42 gal 22.57 gal/hr 0.00 gal/nm 0 msl 0 kts
Sun, Sep 27, 2020     14:37 14:43 0.09 hrs 0.00 hrs 0.00 nm 0.43 gal 4.98 gal/hr 0.00 gal/nm 0 msl 0 kts
Sun, Sep 27, 2020 KJYO KJYO 12:01 14:21 2.19 hrs 1.83 hrs 229.05 nm 22.56 gal 10.32 gal/hr 0.10 gal/nm 5008 msl 117 kts
Sat, Sep 26, 2020 KJYO KJYO 18:10 20:10 1.86 hrs 1.41 hrs 178.23 nm 18.00 gal 9.66 gal/hr 0.10 gal/nm 4021 msl 118 kts
Sat, Sep 26, 2020 KJYO KJYO 16:38 16:51 0.21 hrs 0.00 hrs 0.00 nm 0.21 gal 0.97 gal/hr 0.00 gal/nm 0 msl 0 kts
Fri, Sep 25, 2020     23:37 23:44 0.12 hrs 0.00 hrs 0.00 nm 0.20 gal 1.71 gal/hr 0.00 gal/nm 0 msl 0 kts
Fri, Sep 25, 2020 KJYO KJYO 21:10 23:19 2.02 hrs 1.56 hrs 189.48 nm 19.13 gal 9.47 gal/hr 0.10 gal/nm 3711 msl 114 kts
Thu, Sep 24, 2020 KOKV KJYO 14:24 14:54 0.46 hrs 0.26 hrs 33.80 nm 3.54 gal 7.74 gal/hr 0.10 gal/nm 3012 msl 118 kts
Thu, Sep 24, 2020 KJYO KOKV 12:53 14:06 1.16 hrs 0.53 hrs 56.54 nm 7.04 gal 6.09 gal/hr 0.12 gal/nm 3719 msl 102 kts
Thu, Sep 24, 2020     12:43 12:44 0.01 hrs 0.00 hrs 0.00 nm 0.03 gal 2.04 gal/hr 0.00 gal/nm 0 msl 0 kts
Thu, Sep 24, 2020 KJYO KJYO 01:14 01:21 0.1 hrs 0.00 hrs 0.00 nm 0.19 gal 1.87 gal/hr 0.00 gal/nm 0 msl 0 kts
Wed, Sep 23, 2020 KOKV KJYO 23:03 00:21 1.23 hrs 1.09 hrs 128.37 nm 12.31 gal 10.00 gal/hr 0.10 gal/nm 3207 msl 112 kts
Wed, Sep 23, 2020 KJYO 61VA 20:45 22:50 1.95 hrs 1.38 hrs 168.36 nm 16.86 gal 8.64 gal/hr 0.10 gal/nm 3746 msl 114 kts
Mon, Sep 21, 2020 KJYO KJYO 22:46 01:30 2.62 hrs 1.89 hrs 235.96 nm 21.89 gal 8.37 gal/hr 0.09 gal/nm 4038 msl 119 kts
Sun, Sep 20, 2020 KHGR KJYO 18:48 19:29 0.65 hrs 0.36 hrs 44.98 nm 4.70 gal 7.26 gal/hr 0.10 gal/nm 3292 msl 118 kts
Sun, Sep 20, 2020 KJYO KHGR 17:21 18:20 0.93 hrs 0.43 hrs 54.71 nm 6.21 gal 6.69 gal/hr 0.11 gal/nm 3937 msl 116 kts
Sun, Sep 20, 2020     17:04 17:07 0.05 hrs 0.00 hrs 0.00 nm 0.11 gal 2.44 gal/hr 0.00 gal/nm 0 msl 0 kts
Sun, Sep 20, 2020 KHGR KJYO 14:47 15:31 0.66 hrs 0.33 hrs 45.57 nm 4.93 gal 7.49 gal/hr 0.11 gal/nm 3934 msl 123 kts
Sun, Sep 20, 2020 KJYO KHGR 13:02 13:40 0.58 hrs 0.30 hrs 40.86 nm 4.62 gal 8.01 gal/hr 0.11 gal/nm 3557 msl 121 kts
Sun, Sep 20, 2020     12:46 12:48 0.04 hrs 0.00 hrs 0.00 nm 0.09 gal 2.17 gal/hr 0.00 gal/nm 0 msl 0 kts
Sat, Sep 19, 2020 KJYO KJYO 12:01 14:27 2.3 hrs 1.67 hrs 203.55 nm 20.10 gal 8.73 gal/hr 0.10 gal/nm 4009 msl 116 kts
Fri, Sep 18, 2020 KLNS KJYO 18:26 19:29 1.01 hrs 0.67 hrs 93.60 nm 7.63 gal 7.53 gal/hr 0.08 gal/nm 4041 msl 134 kts
Fri, Sep 18, 2020 KLNS KLNS 17:55 18:02 0.11 hrs 0.00 hrs 0.00 nm 0.22 gal 1.91 gal/hr 0.00 gal/nm 0 msl 0 kts
Fri, Sep 18, 2020 KJYO KLNS 15:29 16:31 1 hrs 0.75 hrs 91.37 nm 9.26 gal 9.21 gal/hr 0.10 gal/nm 4040 msl 116 kts
Fri, Sep 18, 2020 KJYO KJYO 15:20 15:23 0.06 hrs 0.00 hrs 0.00 nm 0.05 gal 0.89 gal/hr 0.00 gal/nm 0 msl 0 kts
Fri, Sep 18, 2020 KJYO KJYO 15:14 15:15 0.02 hrs 0.00 hrs 0.00 nm 0.05 gal 2.25 gal/hr 0.00 gal/nm 0 msl 0 kts
Fri, Sep 18, 2020     15:08 15:08 0.01 hrs 0.00 hrs 0.00 nm 0.06 gal 5.40 gal/hr 0.00 gal/nm 0 msl 0 kts
Thu, Sep 17, 2020 KBWI KJYO 04:00 04:47 0.75 hrs 0.46 hrs 58.32 nm 6.52 gal 8.69 gal/hr 0.11 gal/nm 4128 msl 121 kts
Wed, Sep 16, 2020 KJYO KBWI 22:11 03:29 4.91 hrs 3.58 hrs 522.30 nm 47.77 gal 9.74 gal/hr 0.09 gal/nm 7010 msl 135 kts
Wed, Sep 16, 2020 W66 KJYO 16:27 17:37 1.09 hrs 0.82 hrs 98.99 nm 10.61 gal 9.70 gal/hr 0.11 gal/nm 4718 msl 113 kts
Wed, Sep 16, 2020 KJYO W66 14:34 16:00 1.32 hrs 0.92 hrs 125.79 nm 12.23 gal 9.29 gal/hr 0.10 gal/nm 4206 msl 124 kts
Wed, Sep 16, 2020 KJYO KJYO 13:06 13:15 0.15 hrs 0.00 hrs 0.00 nm 0.26 gal 1.73 gal/hr 0.00 gal/nm 0 msl 0 kts
Wed, Sep 16, 2020     12:33 12:34 0.02 hrs 0.00 hrs 0.00 nm 22.44 gal 1496.00 gal/hr 0.00 gal/nm 0 msl 0 kts
Tue, Sep 15, 2020 KJYO KJYO 23:15 01:10 1.78 hrs 1.22 hrs 147.55 nm 14.55 gal 8.19 gal/hr 0.10 gal/nm 3819 msl 112 kts
Tue, Sep 15, 2020 KJYO KJYO 23:01 23:04 0.05 hrs 0.00 hrs 0.00 nm 1.98 gal 40.50 gal/hr 0.00 gal/nm 0 msl 0 kts
Tue, Sep 15, 2020 KJYO KJYO 15:10 17:44 2.45 hrs 1.53 hrs 212.89 nm 20.91 gal 8.53 gal/hr 0.10 gal/nm 4707 msl 133 kts
Tue, Sep 15, 2020 KJYO KJYO 13:26 13:42 0.26 hrs 0.00 hrs 0.00 nm 0.43 gal 1.69 gal/hr 0.00 gal/nm 0 msl 0 kts
Tue, Sep 15, 2020     12:46 12:46 0.01 hrs 0.00 hrs 0.00 nm 11.83 gal 1064.70 gal/hr 0.00 gal/nm 0 msl 0 kts
Mon, Sep 14, 2020 KJYO KJYO 22:53 00:51 1.83 hrs 1.55 hrs 192.09 nm 18.13 gal 9.91 gal/hr 0.09 gal/nm 3732 msl 115 kts
Mon, Sep 14, 2020     22:49 22:49 0.01 hrs 0.00 hrs 0.00 nm 0.02 gal 2.77 gal/hr 0.00 gal/nm 0 msl 0 kts
Sun, Sep 13, 2020 KCRE KJYO 18:02 20:44 2.58 hrs 2.25 hrs 333.58 nm 25.61 gal 9.92 gal/hr 0.08 gal/nm 7048 msl 141 kts
Sun, Sep 13, 2020 KCRE KCRE 17:54 17:55 0.02 hrs 0.00 hrs 0.00 nm 0.08 gal 3.60 gal/hr 0.00 gal/nm 0 msl 0 kts
Fri, Sep 11, 2020 W88 KCRE 13:44 15:11 1.37 hrs 1.13 hrs 158.66 nm 13.05 gal 9.51 gal/hr 0.08 gal/nm 5521 msl 133 kts
Fri, Sep 11, 2020     12:44 12:45 0.01 hrs 0.00 hrs 0.00 nm 0.11 gal 7.47 gal/hr 0.00 gal/nm 0 msl 0 kts
Thu, Sep 10, 2020 KJYO W88 18:53 20:57 1.97 hrs 1.53 hrs 217.48 nm 18.07 gal 9.17 gal/hr 0.08 gal/nm 8054 msl 135 kts
Thu, Sep 10, 2020     18:25 18:26 0.01 hrs 0.00 hrs 0.00 nm 0.11 gal 10.15 gal/hr 0.00 gal/nm 0 msl 0 kts
Wed, Sep 9, 2020 KJYO KJYO 23:19 00:57 1.53 hrs 1.39 hrs 166.51 nm 16.79 gal 10.94 gal/hr 0.10 gal/nm 4023 msl 113 kts
Tue, Sep 8, 2020 KJYO KJYO 22:58 01:03 1.96 hrs 1.46 hrs 175.26 nm 17.04 gal 8.72 gal/hr 0.10 gal/nm 3364 msl 112 kts
Tue, Sep 8, 2020     22:51 22:51 0 hrs 0.00 hrs 0.00 nm 0.02 gal 6.00 gal/hr 0.00 gal/nm 0 msl 0 kts
Mon, Sep 7, 2020     18:49 18:52 0.06 hrs 0.00 hrs 0.00 nm 3.67 gal 65.08 gal/hr 0.00 gal/nm 0 msl 0 kts
Mon, Sep 7, 2020 KJYO KJYO 17:29 18:44 1.14 hrs 0.76 hrs 101.08 nm 10.03 gal 8.84 gal/hr 0.10 gal/nm 3732 msl 121 kts
Mon, Sep 7, 2020     17:05 17:06 0.01 hrs 0.00 hrs 0.00 nm 14.11 gal 958.42 gal/hr 0.00 gal/nm 0 msl 0 kts
Mon, Sep 7, 2020 KOKV KJYO 13:39 14:08 0.45 hrs 0.26 hrs 33.50 nm 3.42 gal 7.60 gal/hr 0.10 gal/nm 3111 msl 120 kts
Mon, Sep 7, 2020 KJYO KOKV 12:08 13:13 0.99 hrs 0.63 hrs 80.84 nm 8.57 gal 8.64 gal/hr 0.11 gal/nm 4118 msl 114 kts
Mon, Sep 7, 2020     11:58 11:59 0.01 hrs 0.00 hrs 0.00 nm 0.08 gal 7.38 gal/hr 0.00 gal/nm 0 msl 0 kts
Fri, Sep 4, 2020 KHGR KJYO 00:34 01:27 0.84 hrs 0.42 hrs 51.36 nm 5.90 gal 7.04 gal/hr 0.11 gal/nm 4012 msl 114 kts
Thu, Sep 3, 2020 KJYO KHGR 22:39 00:02 1.31 hrs 0.90 hrs 111.81 nm 12.01 gal 9.17 gal/hr 0.11 gal/nm 4364 msl 116 kts
Thu, Sep 3, 2020     22:08 22:08 0.01 hrs 0.00 hrs 0.00 nm 0.07 gal 6.30 gal/hr 0.00 gal/nm 0 msl 0 kts
Sun, Aug 30, 2020 KJYO KJYO 23:10 00:41 1.41 hrs 0.79 hrs 98.77 nm 10.00 gal 7.11 gal/hr 0.10 gal/nm 3706 msl 113 kts
Sun, Aug 30, 2020     22:39 22:39 0 hrs 0.00 hrs 0.00 nm 0.01 gal 3.00 gal/hr 0.00 gal/nm 0 msl 0 kts
Fri, Aug 28, 2020     20:47 20:49 0.02 hrs 0.00 hrs 0.00 nm 0.08 gal 4.36 gal/hr 0.00 gal/nm 0 msl 0 kts
Fri, Aug 28, 2020 KJYO KJYO 18:14 20:42 2.29 hrs 1.81 hrs 241.84 nm 23.07 gal 10.08 gal/hr 0.10 gal/nm 3512 msl 123 kts
Fri, Aug 28, 2020 KJYO KJYO 18:03 18:12 0.14 hrs 0.00 hrs 0.00 nm 0.29 gal 1.98 gal/hr 0.00 gal/nm 0 msl 0 kts
Fri, Aug 28, 2020     17:52 17:53 0.01 hrs 0.00 hrs 0.00 nm 9.46 gal 1362.24 gal/hr 0.00 gal/nm 0 msl 0 kts
Wed, Aug 26, 2020 KJYO KJYO 13:22 14:53 1.43 hrs 0.76 hrs 97.95 nm 10.41 gal 7.27 gal/hr 0.11 gal/nm 3177 msl 122 kts
Wed, Aug 26, 2020     12:40 12:41 0.01 hrs 0.00 hrs 0.00 nm 12.18 gal 1124.31 gal/hr 0.00 gal/nm 0 msl 0 kts
Mon, Aug 24, 2020 KJYO KJYO 13:20 13:28 0.11 hrs 0.00 hrs 0.00 nm 0.22 gal 1.92 gal/hr 0.00 gal/nm 0 msl 0 kts
Mon, Aug 24, 2020 KJYO KJYO 11:37 13:12 1.52 hrs 0.53 hrs 51.00 nm 7.47 gal 4.93 gal/hr 0.15 gal/nm 1502 msl 92 kts
Mon, Aug 24, 2020 KJYO KJYO 10:54 11:04 0.17 hrs 0.00 hrs 0.00 nm 0.31 gal 1.86 gal/hr 0.00 gal/nm 0 msl 0 kts
Mon, Aug 24, 2020     10:32 10:33 0.01 hrs 0.00 hrs 0.00 nm 18.51 gal 1257.28 gal/hr 0.00 gal/nm 0 msl 0 kts
Sun, Aug 23, 2020 KCHO KJYO 21:37 22:30 0.8 hrs 0.50 hrs 80.04 nm 7.33 gal 9.17 gal/hr 0.09 gal/nm 3529 msl 143 kts
Sun, Aug 23, 2020 KJYO KCHO 18:30 19:36 1 hrs 0.57 hrs 78.99 nm 8.98 gal 8.95 gal/hr 0.11 gal/nm 3238 msl 125 kts
Sun, Aug 23, 2020 KJYO KJYO 18:27 18:29 0.03 hrs 0.00 hrs 0.00 nm 0.39 gal 11.60 gal/hr 0.00 gal/nm 0 msl 0 kts
Sun, Aug 23, 2020     18:08 18:09 0.01 hrs 0.00 hrs 0.00 nm 0.02 gal 1.85 gal/hr 0.00 gal/nm 0 msl 0 kts
Sun, Aug 23, 2020 KLNS KJYO 16:45 17:49 1.01 hrs 0.75 hrs 97.77 nm 9.09 gal 9.02 gal/hr 0.09 gal/nm 6017 msl 123 kts
Sun, Aug 23, 2020 KOKV KLNS 15:17 16:31 1.18 hrs 0.86 hrs 124.62 nm 11.10 gal 9.42 gal/hr 0.09 gal/nm 7507 msl 139 kts
Sun, Aug 23, 2020 KJYO KOKV 12:34 14:17 1.62 hrs 1.20 hrs 159.15 nm 15.63 gal 9.64 gal/hr 0.10 gal/nm 5012 msl 123 kts
Sun, Aug 23, 2020     12:20 12:21 0.01 hrs 0.00 hrs 0.00 nm 0.07 gal 6.46 gal/hr 0.00 gal/nm 0 msl 0 kts
Sat, Aug 22, 2020 KCBE KJYO 16:42 17:29 0.75 hrs 0.58 hrs 77.18 nm 6.99 gal 9.38 gal/hr 0.09 gal/nm 4515 msl 125 kts
Sat, Aug 22, 2020 KJYO KCBE 14:44 15:39 0.87 hrs 0.52 hrs 71.67 nm 7.01 gal 8.04 gal/hr 0.10 gal/nm 6073 msl 132 kts
Sat, Aug 22, 2020     14:41 14:42 0 hrs 0.00 hrs 0.00 nm 0.06 gal 19.64 gal/hr 0.00 gal/nm 0 msl 0 kts
Fri, Aug 21, 2020 KJYO KJYO 11:29 14:03 2.42 hrs 1.39 hrs 154.67 nm 18.28 gal 7.56 gal/hr 0.12 gal/nm 3234 msl 104 kts
Fri, Aug 21, 2020     11:06 11:07 0.01 hrs 0.00 hrs 0.00 nm 24.69 gal 1677.06 gal/hr 0.00 gal/nm 0 msl 0 kts
Thu, Aug 20, 2020 KJYO KJYO 22:42 00:59 2.13 hrs 1.44 hrs 175.07 nm 17.54 gal 8.22 gal/hr 0.10 gal/nm 3505 msl 113 kts
Thu, Aug 20, 2020 KJYO KJYO 11:26 13:42 2.14 hrs 1.84 hrs 188.58 nm 21.37 gal 9.99 gal/hr 0.11 gal/nm 7103 msl 97 kts
Thu, Aug 20, 2020     10:48 10:49 0.01 hrs 0.00 hrs 0.00 nm 19.50 gal 1324.53 gal/hr 0.00 gal/nm 0 msl 0 kts
Thu, Aug 20, 2020 KJYO KJYO 01:26 01:26 0 hrs 0.00 hrs 0.00 nm 5.09 gal 1527.00 gal/hr 0.00 gal/nm 0 msl 0 kts
Wed, Aug 19, 2020 KJYO KJYO 23:14 01:26 2.07 hrs 1.20 hrs 177.16 nm 17.02 gal 8.23 gal/hr 0.10 gal/nm 4717 msl 138 kts
Wed, Aug 19, 2020     22:53 22:54 0 hrs 0.00 hrs 0.00 nm 0.01 gal 3.00 gal/hr 0.00 gal/nm 0 msl 0 kts
Wed, Aug 19, 2020 KJYO KJYO 19:14 20:45 1.46 hrs 0.90 hrs 104.89 nm 11.21 gal 7.70 gal/hr 0.11 gal/nm 3170 msl 112 kts
Wed, Aug 19, 2020     18:50 18:51 0.01 hrs 0.00 hrs 0.00 nm 0.00 gal 0.00 gal/hr 0.00 gal/nm 0 msl 0 kts
Wed, Aug 19, 2020 KJYO KJYO 11:48 13:43 1.81 hrs 1.00 hrs 121.27 nm 13.34 gal 7.36 gal/hr 0.11 gal/nm 3245 msl 114 kts
Wed, Aug 19, 2020     10:49 10:50 0.01 hrs 0.00 hrs 0.00 nm 17.24 gal 1591.38 gal/hr 0.00 gal/nm 0 msl 0 kts
Mon, Aug 17, 2020     11:02 11:02 0.02 hrs 0.00 hrs 0.00 nm 18.32 gal 1221.33 gal/hr 0.00 gal/nm 0 msl 0 kts
Sat, Aug 15, 2020 KOKV KJYO 13:32 14:32 0.96 hrs 0.72 hrs 71.49 nm 7.99 gal 8.29 gal/hr 0.11 gal/nm 3135 msl 95 kts
Sat, Aug 15, 2020 KJYO KOKV 12:23 13:12 0.79 hrs 0.53 hrs 63.25 nm 6.09 gal 7.72 gal/hr 0.10 gal/nm 3102 msl 113 kts
Sat, Aug 15, 2020     12:00 12:00 0 hrs 0.00 hrs 0.00 nm 0.09 gal 27.00 gal/hr 0.00 gal/nm 0 msl 0 kts
Fri, Aug 14, 2020 KJYO KJYO 18:58 19:47 0.78 hrs 0.38 hrs 50.08 nm 5.73 gal 7.31 gal/hr 0.11 gal/nm 2919 msl 122 kts
Fri, Aug 14, 2020     18:28 18:28 0 hrs 0.00 hrs 0.00 nm 0.03 gal 9.00 gal/hr 0.00 gal/nm 0 msl 0 kts
Fri, Aug 14, 2020     18:24 18:25 0.01 hrs 0.00 hrs 0.00 nm 0.12 gal 8.15 gal/hr 0.00 gal/nm 0 msl 0 kts
Thu, Aug 13, 2020 KJYO KJYO 22:55 00:56 1.91 hrs 1.14 hrs 144.28 nm 15.69 gal 8.23 gal/hr 0.11 gal/nm 4095 msl 120 kts
Thu, Aug 13, 2020     22:35 22:35 0.01 hrs 0.00 hrs 0.00 nm 13.75 gal 1903.85 gal/hr 0.00 gal/nm 0 msl 0 kts
Tue, Aug 11, 2020 KJYO KJYO 22:48 00:52 1.96 hrs 1.05 hrs 129.61 nm 14.31 gal 7.29 gal/hr 0.11 gal/nm 3607 msl 116 kts
Sun, Aug 9, 2020 KJYO KJYO 21:50 23:17 1.38 hrs 0.86 hrs 109.74 nm 11.60 gal 8.44 gal/hr 0.11 gal/nm 3011 msl 120 kts
Sun, Aug 9, 2020     21:32 21:33 0.01 hrs 0.00 hrs 0.00 nm 18.21 gal 2622.24 gal/hr 0.00 gal/nm 0 msl 0 kts
Sun, Aug 9, 2020 KOKV KJYO 15:03 15:30 0.42 hrs 0.27 hrs 35.02 nm 3.58 gal 8.44 gal/hr 0.10 gal/nm 2505 msl 123 kts
Sun, Aug 9, 2020 KOKV KOKV 14:10 14:53 0.69 hrs 0.35 hrs 42.26 nm 4.73 gal 6.86 gal/hr 0.11 gal/nm 3125 msl 113 kts
Sun, Aug 9, 2020 KJYO KOKV 12:27 13:44 1.23 hrs 0.76 hrs 83.04 nm 9.10 gal 7.37 gal/hr 0.11 gal/nm 4132 msl 105 kts
Sun, Aug 9, 2020     12:10 12:11 0.01 hrs 0.00 hrs 0.00 nm 18.39 gal 2648.16 gal/hr 0.00 gal/nm 0 msl 0 kts
Sat, Aug 8, 2020 KJYO KJYO 13:58 16:04 2.02 hrs 0.80 hrs 75.43 nm 9.50 gal 4.70 gal/hr 0.13 gal/nm 1358 msl 92 kts
Sat, Aug 8, 2020 KJYO KJYO 13:39 13:42 0.04 hrs 0.00 hrs 0.00 nm 15.75 gal 383.11 gal/hr 0.00 gal/nm 0 msl 0 kts
Wed, Aug 5, 2020     23:32 23:32 0.01 hrs 0.00 hrs 0.00 nm 0.00 gal 0.45 gal/hr 0.00 gal/nm 0 msl 0 kts
Wed, Aug 5, 2020 KJYO KJYO 23:22 23:25 0.05 hrs 0.00 hrs 0.00 nm 0.05 gal 0.99 gal/hr 0.00 gal/nm 0 msl 0 kts
Wed, Aug 5, 2020 KJYO KJYO 23:16 23:18 0.03 hrs 0.00 hrs 0.00 nm 0.02 gal 0.64 gal/hr 0.00 gal/nm 0 msl 0 kts
Wed, Aug 5, 2020     22:52 22:52 0.01 hrs 0.00 hrs 0.00 nm 0.00 gal 0.02 gal/hr 0.00 gal/nm 0 msl 0 kts
Wed, Aug 5, 2020 KJYO KJYO 22:24 22:26 0.03 hrs 0.00 hrs 0.00 nm 0.00 gal 0.00 gal/hr 0.00 gal/nm 0 msl 0 kts
Wed, Aug 5, 2020     22:22 22:23 0.01 hrs 0.00 hrs 0.00 nm 0.04 gal 2.72 gal/hr 0.00 gal/nm 0 msl 0 kts
Wed, Aug 5, 2020 KJYO KJYO 21:55 21:56 0.01 hrs 0.00 hrs 0.00 nm 22.56 gal 2082.46 gal/hr 0.00 gal/nm 0 msl 0 kts
Wed, Aug 5, 2020 KJYO KJYO 20:35 21:46 1.14 hrs 0.48 hrs 45.09 nm 5.91 gal 5.19 gal/hr 0.13 gal/nm 1339 msl 91 kts
Wed, Aug 5, 2020     20:25 20:26 0.01 hrs 0.00 hrs 0.00 nm 0.06 gal 5.54 gal/hr 0.00 gal/nm 0 msl 0 kts
Sun, Aug 2, 2020 KJYO KJYO 15:08 16:05 0.9 hrs 0.32 hrs 30.28 nm 4.49 gal 5.00 gal/hr 0.15 gal/nm 1290 msl 91 kts
Sun, Aug 2, 2020     15:06 15:06 0.01 hrs 0.00 hrs 0.00 nm 0.03 gal 4.15 gal/hr 0.00 gal/nm 0 msl 0 kts
Sun, Aug 2, 2020 KJYO KJYO 14:46 14:53 0.12 hrs 0.00 hrs 0.00 nm 0.06 gal 0.47 gal/hr 0.00 gal/nm 0 msl 0 kts
Sun, Aug 2, 2020 KJYO KJYO 13:07 14:02 0.87 hrs 0.40 hrs 49.05 nm 5.52 gal 6.37 gal/hr 0.11 gal/nm 4013 msl 115 kts
Sun, Aug 2, 2020     12:50 12:50 0.01 hrs 0.00 hrs 0.00 nm 0.09 gal 12.46 gal/hr 0.00 gal/nm 0 msl 0 kts
Sun, Jul 26, 2020 KJYO KJYO 14:01 15:12 1.15 hrs 0.35 hrs 34.02 nm 5.09 gal 4.43 gal/hr 0.15 gal/nm 1256 msl 92 kts
Sun, Jul 26, 2020     13:26 13:26 0 hrs 0.00 hrs 0.00 nm 0.02 gal 6.00 gal/hr 0.00 gal/nm 0 msl 0 kts
Sat, Jul 25, 2020 KOKV KJYO 16:53 17:26 0.52 hrs 0.25 hrs 30.70 nm 3.49 gal 6.73 gal/hr 0.11 gal/nm 3026 msl 116 kts
Sat, Jul 25, 2020 KOKV KOKV 16:33 16:36 0.04 hrs 0.00 hrs 0.00 nm 0.03 gal 0.76 gal/hr 0.00 gal/nm 0 msl 0 kts
Sat, Jul 25, 2020 KOKV KOKV 16:27 16:30 0.05 hrs 0.00 hrs 0.00 nm 0.05 gal 1.09 gal/hr 0.00 gal/nm 0 msl 0 kts
Sat, Jul 25, 2020     16:10 16:11 0.02 hrs 0.00 hrs 0.00 nm 0.01 gal 0.30 gal/hr 0.00 gal/nm 0 msl 0 kts
Sat, Jul 25, 2020 KOKV KOKV 16:06 16:07 0.03 hrs 0.00 hrs 0.00 nm 0.01 gal 0.33 gal/hr 0.00 gal/nm 0 msl 0 kts
Sat, Jul 25, 2020 KOKV KOKV 16:00 16:03 0.05 hrs 0.00 hrs 0.00 nm 0.00 gal 0.03 gal/hr 0.00 gal/nm 0 msl 0 kts
Sat, Jul 25, 2020 KJYO KOKV 13:32 15:29 1.85 hrs 1.42 hrs 175.43 nm 17.96 gal 9.72 gal/hr 0.10 gal/nm 6008 msl 117 kts
Sat, Jul 25, 2020     12:33 12:33 0 hrs 0.00 hrs 0.00 nm 0.93 gal 279.00 gal/hr 0.00 gal/nm 0 msl 0 kts
Mon, Jul 13, 2020     15:08 15:08 0 hrs 0.00 hrs 0.00 nm 0.02 gal 6.00 gal/hr 0.00 gal/nm 0 msl 0 kts
Sun, Jul 12, 2020 KJYO KJYO 14:06 15:29 1.33 hrs 0.75 hrs 93.22 nm 9.64 gal 7.27 gal/hr 0.10 gal/nm 3275 msl 118 kts
Sun, Jul 12, 2020     13:45 13:46 0.01 hrs 0.00 hrs 0.00 nm 14.64 gal 1351.38 gal/hr 0.00 gal/nm 0 msl 0 kts
Sun, Jul 5, 2020 KOKV KJYO 15:01 15:59 0.91 hrs 0.49 hrs 58.14 nm 7.02 gal 7.76 gal/hr 0.12 gal/nm 2604 msl 107 kts
Sun, Jul 5, 2020 KJYO KOKV 12:59 14:21 1.3 hrs 0.85 hrs 97.09 nm 10.44 gal 8.02 gal/hr 0.11 gal/nm 3995 msl 108 kts
Sun, Jul 5, 2020     11:49 11:50 0.01 hrs 0.00 hrs 0.00 nm 0.07 gal 6.46 gal/hr 0.00 gal/nm 0 msl 0 kts
Thu, Jul 2, 2020 KLNS KJYO 17:07 18:08 0.97 hrs 0.68 hrs 96.31 nm 8.10 gal 8.39 gal/hr 0.08 gal/nm 4518 msl 136 kts
Thu, Jul 2, 2020 KLNS KLNS 17:00 17:02 0.03 hrs 0.00 hrs 0.00 nm 15.50 gal 600.00 gal/hr 0.00 gal/nm 0 msl 0 kts
Wed, Jul 1, 2020 KLNS KLNS 19:16 19:41 0.39 hrs 0.22 hrs 29.32 nm 3.28 gal 8.40 gal/hr 0.11 gal/nm 2561 msl 128 kts
Wed, Jul 1, 2020 KLNS KLNS 17:39 17:53 0.23 hrs 0.00 hrs 0.00 nm 0.65 gal 2.81 gal/hr 0.00 gal/nm 0 msl 0 kts
Wed, Jul 1, 2020 KLNS KLNS 17:18 17:35 0.28 hrs 0.00 hrs 0.00 nm 0.90 gal 3.27 gal/hr 0.00 gal/nm 0 msl 0 kts
Wed, Jul 1, 2020 KLNS KLNS 17:14 17:16 0.04 hrs 0.00 hrs 0.00 nm 0.03 gal 0.78 gal/hr 0.00 gal/nm 0 msl 0 kts
Wed, Jul 1, 2020     15:48 15:52 0.08 hrs 0.00 hrs 0.00 nm 0.03 gal 0.46 gal/hr 0.00 gal/nm 0 msl 0 kts
Fri, Jun 26, 2020     20:01 20:02 0.01 hrs 0.00 hrs 0.00 nm 0.25 gal 16.98 gal/hr 0.00 gal/nm 0 msl 0 kts
Tue, Jun 23, 2020     17:15 19:16 1.98 hrs 0.00 hrs 0.00 nm 0.26 gal 0.13 gal/hr 0.00 gal/nm 0 msl 0 kts
Tue, Jun 23, 2020     16:27 17:14 0.76 hrs 0.00 hrs 0.00 nm 0.64 gal 0.84 gal/hr 0.00 gal/nm 0 msl 0 kts
Mon, Jun 22, 2020     20:22 20:23 0.02 hrs 0.00 hrs 0.00 nm 0.04 gal 2.29 gal/hr 0.00 gal/nm 0 msl 0 kts
Mon, Jun 22, 2020     17:21 17:23 0.03 hrs 0.00 hrs 0.00 nm 0.02 gal 0.81 gal/hr 0.00 gal/nm 0 msl 0 kts
Mon, Jun 22, 2020 KLNS KLNS 12:55 13:26 0.5 hrs 0.00 hrs 0.00 nm 1.12 gal 2.26 gal/hr 0.00 gal/nm 0 msl 0 kts
Mon, Jun 22, 2020 KJYO KLNS 11:25 12:34 1.09 hrs 0.68 hrs 98.89 nm 8.91 gal 8.13 gal/hr 0.09 gal/nm 5014 msl 138 kts
Mon, Jun 22, 2020     11:12 11:12 0 hrs 0.00 hrs 0.00 nm 10.24 gal 3072.00 gal/hr 0.00 gal/nm 0 msl 0 kts
Fri, Jun 19, 2020     17:46 17:50 0.07 hrs 0.00 hrs 0.00 nm 0.10 gal 1.40 gal/hr 0.00 gal/nm 0 msl 0 kts
Fri, Jun 19, 2020 KJYO KJYO 14:26 14:34 0.13 hrs 0.00 hrs 0.00 nm 0.22 gal 1.64 gal/hr 0.00 gal/nm 0 msl 0 kts
Fri, Jun 19, 2020 KJYO KJYO 11:52 14:00 2 hrs 1.22 hrs 138.75 nm 15.94 gal 7.97 gal/hr 0.11 gal/nm 3502 msl 105 kts
Fri, Jun 19, 2020 KJYO KJYO 11:35 11:44 0.14 hrs 0.00 hrs 0.00 nm 0.25 gal 1.77 gal/hr 0.00 gal/nm 0 msl 0 kts
Fri, Jun 19, 2020     10:53 10:54 0.01 hrs 0.00 hrs 0.00 nm 1.56 gal 224.64 gal/hr 0.00 gal/nm 0 msl 0 kts
Wed, Jun 17, 2020 KJYO KJYO 12:33 14:21 1.67 hrs 1.16 hrs 164.71 nm 14.40 gal 8.64 gal/hr 0.09 gal/nm 5180 msl 130 kts
Wed, Jun 17, 2020 KJYO KJYO 11:29 11:39 0.16 hrs 0.00 hrs 0.00 nm 0.27 gal 1.69 gal/hr 0.00 gal/nm 0 msl 0 kts
Wed, Jun 17, 2020     10:55 10:55 0.01 hrs 0.00 hrs 0.00 nm 1.34 gal 185.54 gal/hr 0.00 gal/nm 0 msl 0 kts
Mon, Jun 15, 2020 KJYO KJYO 14:38 14:45 0.12 hrs 0.00 hrs 0.00 nm 0.22 gal 1.79 gal/hr 0.00 gal/nm 0 msl 0 kts
Mon, Jun 15, 2020 KJYO KJYO 13:39 14:19 0.64 hrs 0.20 hrs 19.27 nm 3.03 gal 4.76 gal/hr 0.16 gal/nm 1382 msl 88 kts
Mon, Jun 15, 2020 KJYO KJYO 13:04 13:29 0.39 hrs 0.14 hrs 13.46 nm 1.99 gal 5.15 gal/hr 0.15 gal/nm 1338 msl 87 kts
Mon, Jun 15, 2020 KJYO KJYO 11:49 12:52 0.99 hrs 0.35 hrs 33.43 nm 4.91 gal 4.96 gal/hr 0.15 gal/nm 1404 msl 88 kts
Mon, Jun 15, 2020 KJYO KJYO 11:34 11:45 0.18 hrs 0.00 hrs 0.00 nm 0.25 gal 1.37 gal/hr 0.00 gal/nm 0 msl 0 kts
Mon, Jun 15, 2020     11:14 11:15 0.01 hrs 0.00 hrs 0.00 nm 1.57 gal 226.08 gal/hr 0.00 gal/nm 0 msl 0 kts
Sun, Jun 14, 2020 KESN KJYO 13:56 15:15 1.25 hrs 0.78 hrs 100.71 nm 10.15 gal 8.09 gal/hr 0.10 gal/nm 6031 msl 123 kts
Sun, Jun 14, 2020 KJYO KESN 11:56 13:05 1.08 hrs 0.82 hrs 108.84 nm 9.70 gal 8.99 gal/hr 0.09 gal/nm 5013 msl 125 kts
Sun, Jun 14, 2020 KJYO KJYO 11:43 11:54 0.18 hrs 0.00 hrs 0.00 nm 0.29 gal 1.63 gal/hr 0.00 gal/nm 0 msl 0 kts
Sun, Jun 14, 2020     11:32 11:34 0.03 hrs 0.00 hrs 0.00 nm 0.14 gal 4.71 gal/hr 0.00 gal/nm 0 msl 0 kts
Sat, Jun 13, 2020 KOKV KJYO 13:53 15:42 1.7 hrs 1.02 hrs 107.33 nm 13.07 gal 7.70 gal/hr 0.12 gal/nm 3103 msl 98 kts
Sat, Jun 13, 2020 KJYO KOKV 11:48 13:47 1.87 hrs 1.02 hrs 111.38 nm 13.10 gal 7.00 gal/hr 0.12 gal/nm 3490 msl 103 kts
Sat, Jun 13, 2020     11:18 11:18 0.01 hrs 0.00 hrs 0.00 nm 2.96 gal 409.85 gal/hr 0.00 gal/nm 0 msl 0 kts
Fri, Jun 12, 2020 KJYO KJYO 20:59 23:35 2.43 hrs 1.80 hrs 198.67 nm 22.05 gal 9.07 gal/hr 0.11 gal/nm 3317 msl 103 kts
Fri, Jun 12, 2020 KJYO KJYO 20:44 20:58 0.23 hrs 0.00 hrs 0.00 nm 0.33 gal 1.42 gal/hr 0.00 gal/nm 0 msl 0 kts
Fri, Jun 12, 2020     19:31 19:32 0.01 hrs 0.00 hrs 0.00 nm 1.84 gal 169.85 gal/hr 0.00 gal/nm 0 msl 0 kts
Fri, Jun 12, 2020 KCHO KJYO 02:36 03:30 0.8 hrs 0.54 hrs 79.78 nm 8.47 gal 10.53 gal/hr 0.11 gal/nm 5510 msl 126 kts
Thu, Jun 11, 2020 KJYO KCHO 23:04 00:02 0.9 hrs 0.61 hrs 83.26 nm 9.10 gal 10.10 gal/hr 0.11 gal/nm 4378 msl 126 kts
Thu, Jun 11, 2020     22:37 22:37 0 hrs 0.00 hrs 0.00 nm 11.89 gal 3567.00 gal/hr 0.00 gal/nm 0 msl 0 kts
Thu, Jun 11, 2020 KJYO KJYO 14:09 16:11 1.9 hrs 1.36 hrs 150.73 nm 17.10 gal 9.01 gal/hr 0.11 gal/nm 4209 msl 104 kts
Thu, Jun 11, 2020     11:17 11:18 0.02 hrs 0.00 hrs 0.00 nm 18.45 gal 991.34 gal/hr 0.00 gal/nm 0 msl 0 kts
Tue, Jun 9, 2020 KJYO KJYO 18:44 18:49 0.08 hrs 0.00 hrs 0.00 nm 0.16 gal 1.87 gal/hr 0.00 gal/nm 0 msl 0 kts
Tue, Jun 9, 2020 KLNS KJYO 17:39 18:35 0.88 hrs 0.66 hrs 94.29 nm 9.76 gal 11.07 gal/hr 0.10 gal/nm 6508 msl 134 kts
Tue, Jun 9, 2020 KJYO KLNS 15:14 16:08 0.83 hrs 0.71 hrs 101.56 nm 8.86 gal 10.64 gal/hr 0.09 gal/nm 5508 msl 133 kts
Tue, Jun 9, 2020 KJYO KJYO 00:48 02:32 1.57 hrs 0.96 hrs 123.01 nm 13.28 gal 8.47 gal/hr 0.11 gal/nm 3036 msl 115 kts
Sun, Jun 7, 2020 KJYO KJYO 20:45 22:03 1.24 hrs 0.74 hrs 87.27 nm 9.86 gal 7.96 gal/hr 0.11 gal/nm 3115 msl 112 kts
Sun, Jun 7, 2020     20:35 20:36 0.01 hrs 0.00 hrs 0.00 nm 0.05 gal 3.40 gal/hr 0.00 gal/nm 0 msl 0 kts
Sun, Jun 7, 2020 KHGR KJYO 14:11 14:48 0.58 hrs 0.33 hrs 44.32 nm 4.59 gal 7.91 gal/hr 0.10 gal/nm 2865 msl 127 kts
Sun, Jun 7, 2020 KJYO KHGR 12:33 13:13 0.61 hrs 0.35 hrs 42.48 nm 5.23 gal 8.57 gal/hr 0.12 gal/nm 3054 msl 111 kts
Sat, Jun 6, 2020 KJYO KJYO 12:46 13:35 0.78 hrs 0.44 hrs 55.64 nm 6.36 gal 8.15 gal/hr 0.11 gal/nm 3788 msl 122 kts
Sat, Jun 6, 2020     12:30 12:31 0.01 hrs 0.00 hrs 0.00 nm 16.37 gal 2357.28 gal/hr 0.00 gal/nm 0 msl 0 kts
Thu, Jun 4, 2020 KOKV KJYO 20:53 21:35 0.67 hrs 0.34 hrs 38.39 nm 4.57 gal 6.82 gal/hr 0.12 gal/nm 3225 msl 108 kts
Thu, Jun 4, 2020 KJYO KOKV 18:47 20:39 1.75 hrs 1.11 hrs 118.98 nm 14.88 gal 8.48 gal/hr 0.13 gal/nm 4674 msl 99 kts
Thu, Jun 4, 2020     16:58 16:59 0.01 hrs 0.00 hrs 0.00 nm 19.46 gal 2802.24 gal/hr 0.00 gal/nm 0 msl 0 kts
Wed, Jun 3, 2020 KJYO KJYO 22:13 23:37 1.37 hrs 0.83 hrs 82.65 nm 10.07 gal 7.36 gal/hr 0.12 gal/nm 1419 msl 97 kts
Wed, Jun 3, 2020     20:27 20:28 0.01 hrs 0.00 hrs 0.00 nm 19.80 gal 1344.91 gal/hr 0.00 gal/nm 0 msl 0 kts
Tue, Jun 2, 2020 KLNS KJYO 20:43 21:43 0.95 hrs 0.77 hrs 90.06 nm 8.77 gal 9.20 gal/hr 0.10 gal/nm 4332 msl 111 kts
Tue, Jun 2, 2020 KLNS KLNS 20:09 20:16 0.11 hrs 0.00 hrs 0.00 nm 0.32 gal 3.01 gal/hr 0.00 gal/nm 0 msl 0 kts
Tue, Jun 2, 2020 KLNS KLNS 17:27 17:30 0.06 hrs 0.00 hrs 0.00 nm 0.04 gal 0.78 gal/hr 0.00 gal/nm 0 msl 0 kts
Tue, Jun 2, 2020 KJYO KLNS 16:11 17:19 1.08 hrs 0.89 hrs 129.40 nm 10.08 gal 9.36 gal/hr 0.08 gal/nm 5510 msl 138 kts
Mon, Jun 1, 2020 KJYO KJYO 12:31 14:55 2.27 hrs 1.34 hrs 154.07 nm 16.52 gal 7.27 gal/hr 0.11 gal/nm 3413 msl 109 kts
Mon, Jun 1, 2020     12:25 12:26 0.01 hrs 0.00 hrs 0.00 nm 14.71 gal 999.17 gal/hr 0.00 gal/nm 0 msl 0 kts
Sat, May 30, 2020 KOKV KJYO 21:15 21:42 0.43 hrs 0.31 hrs 40.60 nm 3.63 gal 8.40 gal/hr 0.09 gal/nm 3693 msl 127 kts
Sat, May 30, 2020 KJYO KOKV 19:44 21:04 1.26 hrs 1.06 hrs 135.36 nm 11.98 gal 9.50 gal/hr 0.09 gal/nm 3542 msl 120 kts
Sat, May 30, 2020 KJYO KJYO 19:03 19:06 0.06 hrs 0.00 hrs 0.00 nm 0.13 gal 2.19 gal/hr 0.00 gal/nm 0 msl 0 kts
Sat, May 30, 2020 KJYO KJYO 13:18 16:33 3.07 hrs 2.03 hrs 224.16 nm 25.21 gal 8.20 gal/hr 0.11 gal/nm 3788 msl 104 kts
Sat, May 30, 2020     11:13 11:14 0.02 hrs 0.00 hrs 0.00 nm 24.61 gal 1322.33 gal/hr 0.00 gal/nm 0 msl 0 kts
Fri, May 29, 2020 KJYO KJYO 12:59 15:31 2.44 hrs 1.45 hrs 148.96 nm 17.58 gal 7.22 gal/hr 0.12 gal/nm 3266 msl 98 kts
Fri, May 29, 2020     11:11 11:12 0.01 hrs 0.00 hrs 0.00 nm 14.14 gal 1305.23 gal/hr 0.00 gal/nm 0 msl 0 kts
Mon, May 25, 2020     14:40 14:40 0.01 hrs 0.00 hrs 0.00 nm 0.00 gal 0.00 gal/hr 0.00 gal/nm 0 msl 0 kts
Mon, May 25, 2020 KHGR KJYO 13:49 14:33 0.7 hrs 0.41 hrs 49.81 nm 5.09 gal 7.30 gal/hr 0.10 gal/nm 5015 msl 115 kts
Mon, May 25, 2020     13:45 13:45 0 hrs 0.00 hrs 0.00 nm 10.77 gal 3231.00 gal/hr 0.00 gal/nm 0 msl 0 kts
Mon, May 25, 2020 KJYO KHGR 12:19 13:21 0.98 hrs 0.70 hrs 89.60 nm 9.36 gal 9.58 gal/hr 0.10 gal/nm 4104 msl 121 kts
Mon, May 25, 2020     12:05 12:06 0.02 hrs 0.00 hrs 0.00 nm 24.27 gal 1092.15 gal/hr 0.00 gal/nm 0 msl 0 kts
Sun, May 24, 2020     18:31 18:31 0 hrs 0.00 hrs 0.00 nm 0.03 gal 9.00 gal/hr 0.00 gal/nm 0 msl 0 kts
Sun, May 24, 2020 KJYO KJYO 16:54 18:05 1.12 hrs 0.79 hrs 97.50 nm 10.52 gal 9.36 gal/hr 0.11 gal/nm 4021 msl 117 kts
Sun, May 24, 2020     16:41 16:42 0.01 hrs 0.00 hrs 0.00 nm 10.87 gal 1003.38 gal/hr 0.00 gal/nm 0 msl 0 kts
Sat, May 23, 2020 KJYO KJYO 15:32 17:28 1.84 hrs 1.15 hrs 132.07 nm 14.46 gal 7.85 gal/hr 0.11 gal/nm 3203 msl 108 kts
Sat, May 23, 2020     12:28 12:28 0.01 hrs 0.00 hrs 0.00 nm 3.17 gal 285.30 gal/hr 0.00 gal/nm 0 msl 0 kts
Wed, May 20, 2020 KJYO KJYO 12:46 14:52 2 hrs 1.20 hrs 138.12 nm 14.49 gal 7.25 gal/hr 0.10 gal/nm 3258 msl 108 kts
Wed, May 20, 2020     11:03 11:03 0.01 hrs 0.00 hrs 0.00 nm 1.40 gal 193.85 gal/hr 0.00 gal/nm 0 msl 0 kts
Sun, May 17, 2020 KJYO KJYO 18:19 20:37 2.19 hrs 1.50 hrs 178.05 nm 18.39 gal 8.39 gal/hr 0.10 gal/nm 3699 msl 113 kts
Sun, May 17, 2020     16:05 16:06 0.01 hrs 0.00 hrs 0.00 nm 2.76 gal 397.44 gal/hr 0.00 gal/nm 0 msl 0 kts
Sat, May 16, 2020 KJYO KJYO 12:56 15:17 2.26 hrs 1.44 hrs 163.76 nm 18.01 gal 7.96 gal/hr 0.11 gal/nm 3838 msl 109 kts
Sat, May 16, 2020     11:08 11:09 0.01 hrs 0.00 hrs 0.00 nm 3.10 gal 286.15 gal/hr 0.00 gal/nm 0 msl 0 kts
Fri, May 15, 2020 KJYO KJYO 13:12 14:52 1.59 hrs 0.92 hrs 116.85 nm 11.68 gal 7.36 gal/hr 0.10 gal/nm 3704 msl 122 kts
Fri, May 15, 2020     12:34 12:35 0.01 hrs 0.00 hrs 0.00 nm 2.49 gal 169.13 gal/hr 0.00 gal/nm 0 msl 0 kts
Thu, May 14, 2020 KJYO KJYO 21:51 22:27 0.56 hrs 0.30 hrs 37.16 nm 4.09 gal 7.26 gal/hr 0.11 gal/nm 2910 msl 118 kts
Thu, May 14, 2020     21:29 21:30 0.01 hrs 0.00 hrs 0.00 nm 1.40 gal 201.60 gal/hr 0.00 gal/nm 0 msl 0 kts
Thu, May 14, 2020     19:48 19:51 0.06 hrs 0.00 hrs 0.00 nm 0.06 gal 0.94 gal/hr 0.00 gal/nm 0 msl 0 kts
Tue, May 12, 2020 KJYO KJYO 14:20 15:59 1.56 hrs 1.07 hrs 140.10 nm 12.30 gal 7.87 gal/hr 0.09 gal/nm 4731 msl 123 kts
Tue, May 12, 2020     13:18 13:21 0.04 hrs 0.00 hrs 0.00 nm 15.86 gal 426.09 gal/hr 0.00 gal/nm 0 msl 0 kts
Sun, May 10, 2020     18:16 18:20 0.07 hrs 0.00 hrs 0.00 nm 23.09 gal 322.19 gal/hr 0.00 gal/nm 0 msl 0 kts
Sun, May 3, 2020 KFDK KJYO 14:24 15:06 0.67 hrs 0.30 hrs 33.59 nm 4.19 gal 6.28 gal/hr 0.12 gal/nm 3012 msl 106 kts
Sun, May 3, 2020 KJYO KFDK 11:47 13:16 1.4 hrs 1.03 hrs 120.89 nm 13.14 gal 9.38 gal/hr 0.11 gal/nm 5013 msl 110 kts
Sun, May 3, 2020     11:30 11:32 0.03 hrs 0.00 hrs 0.00 nm 14.05 gal 472.71 gal/hr 0.00 gal/nm 0 msl 0 kts
Sat, May 2, 2020 KCHO KJYO 18:24 19:19 0.89 hrs 0.59 hrs 81.65 nm 8.12 gal 9.10 gal/hr 0.10 gal/nm 5019 msl 131 kts
Sat, May 2, 2020     18:10 18:11 0.01 hrs 0.00 hrs 0.00 nm 0.05 gal 3.40 gal/hr 0.00 gal/nm 0 msl 0 kts
Sat, May 2, 2020 KJYO KCHO 15:28 16:31 1 hrs 0.60 hrs 77.46 nm 7.28 gal 7.28 gal/hr 0.09 gal/nm 4025 msl 123 kts
Sat, May 2, 2020     15:02 15:02 0.01 hrs 0.00 hrs 0.00 nm 1.27 gal 175.85 gal/hr 0.00 gal/nm 0 msl 0 kts
Tue, Apr 28, 2020 KJYO KJYO 17:37 18:40 1 hrs 0.64 hrs 84.58 nm 8.27 gal 8.31 gal/hr 0.10 gal/nm 3583 msl 124 kts
Sun, Apr 19, 2020 KOKV KJYO 13:39 14:57 1.22 hrs 0.94 hrs 120.23 nm 11.82 gal 9.70 gal/hr 0.10 gal/nm 4247 msl 119 kts
Sun, Apr 19, 2020 KJYO KOKV 12:12 13:08 0.9 hrs 0.48 hrs 54.68 nm 6.30 gal 6.99 gal/hr 0.12 gal/nm 2307 msl 107 kts
Sun, Apr 19, 2020     11:47 11:48 0.02 hrs 0.00 hrs 0.00 nm 0.04 gal 1.80 gal/hr 0.00 gal/nm 0 msl 0 kts
Sun, Apr 5, 2020 KJYO KJYO 19:02 21:11 1.98 hrs 1.31 hrs 165.47 nm 17.11 gal 8.64 gal/hr 0.10 gal/nm 3256 msl 115 kts
Sun, Apr 5, 2020 KJYO KJYO 18:45 18:46 0.01 hrs 0.00 hrs 0.00 nm 10.36 gal 703.70 gal/hr 0.00 gal/nm 0 msl 0 kts
Sun, Apr 5, 2020 KOKV KJYO 13:54 15:28 1.48 hrs 0.96 hrs 115.51 nm 12.60 gal 8.53 gal/hr 0.11 gal/nm 4013 msl 112 kts
Sun, Apr 5, 2020 KJYO KOKV 12:59 13:38 0.62 hrs 0.29 hrs 33.43 nm 4.01 gal 6.46 gal/hr 0.12 gal/nm 4013 msl 110 kts
Sun, Apr 5, 2020 KJYO KJYO 12:52 12:54 0.03 hrs 0.00 hrs 0.00 nm 0.05 gal 1.68 gal/hr 0.00 gal/nm 0 msl 0 kts
Sun, Apr 5, 2020     12:33 12:34 0.02 hrs 0.00 hrs 0.00 nm 18.11 gal 973.07 gal/hr 0.00 gal/nm 0 msl 0 kts
Thu, Mar 26, 2020 KJYO KJYO 20:56 23:39 2.55 hrs 1.74 hrs 197.96 nm 20.47 gal 8.04 gal/hr 0.10 gal/nm 3810 msl 107 kts
Thu, Mar 26, 2020     20:18 20:21 0.05 hrs 0.00 hrs 0.00 nm 1.68 gal 34.36 gal/hr 0.00 gal/nm 0 msl 0 kts
Sun, Mar 22, 2020 KJYO KJYO 18:03 19:37 1.5 hrs 0.80 hrs 92.49 nm 10.54 gal 7.04 gal/hr 0.11 gal/nm 3573 msl 111 kts
Sun, Mar 22, 2020     17:43 17:44 0.01 hrs 0.00 hrs 0.00 nm 1.67 gal 240.48 gal/hr 0.00 gal/nm 0 msl 0 kts
Fri, Mar 20, 2020     15:27 15:30 0.05 hrs 0.00 hrs 0.00 nm 0.13 gal 2.48 gal/hr 0.00 gal/nm 0 msl 0 kts
Tue, Mar 17, 2020     17:35 17:36 0.02 hrs 0.00 hrs 0.00 nm 0.06 gal 2.70 gal/hr 0.00 gal/nm 0 msl 0 kts
Mon, Mar 16, 2020 KLNS KJYO 19:05 20:01 0.89 hrs 0.70 hrs 91.85 nm 7.67 gal 8.58 gal/hr 0.08 gal/nm 4517 msl 124 kts
Mon, Feb 10, 2020     13:46 13:46 0 hrs 0.00 hrs 0.00 nm 0.85 gal 255.00 gal/hr 0.00 gal/nm 0 msl 0 kts
Sun, Feb 9, 2020 KESN KLNS 17:34 18:37 1 hrs 0.66 hrs 83.49 nm 7.94 gal 7.91 gal/hr 0.10 gal/nm 4031 msl 120 kts
Sun, Feb 9, 2020     17:29 17:29 0.01 hrs 0.00 hrs 0.00 nm 0.00 gal 0.00 gal/hr 0.00 gal/nm 0 msl 0 kts
Sun, Feb 9, 2020 KJYO KESN 15:02 16:08 1.05 hrs 0.59 hrs 80.74 nm 7.51 gal 7.16 gal/hr 0.09 gal/nm 2324 msl 127 kts
Sun, Feb 9, 2020 KJYO KJYO 14:47 14:48 0.03 hrs 0.00 hrs 0.00 nm 0.06 gal 2.30 gal/hr 0.00 gal/nm 0 msl 0 kts
Sun, Jan 26, 2020     16:01 16:03 0.04 hrs 0.00 hrs 0.00 nm 0.06 gal 1.45 gal/hr 0.00 gal/nm 0 msl 0 kts
Fri, Jan 10, 2020 KJYO KJYO 00:38 02:35 1.81 hrs 1.48 hrs 165.04 nm 18.22 gal 10.07 gal/hr 0.11 gal/nm 4123 msl 102 kts
Thu, Jan 9, 2020     23:25 23:26 0.02 hrs 0.00 hrs 0.00 nm 0.06 gal 2.70 gal/hr 0.00 gal/nm 0 msl 0 kts
Thu, Dec 26, 2019 N87 KJYO 20:21 21:51 1.42 hrs 1.25 hrs 160.91 nm 15.17 gal 10.67 gal/hr 0.09 gal/nm 4007 msl 121 kts
Thu, Dec 26, 2019 N87 N87 20:04 20:08 0.07 hrs 0.00 hrs 0.00 nm 0.14 gal 2.06 gal/hr 0.00 gal/nm 0 msl 0 kts
Tue, Dec 24, 2019 KJYO N87 21:57 23:20 1.31 hrs 1.18 hrs 157.72 nm 15.31 gal 11.65 gal/hr 0.10 gal/nm 5518 msl 127 kts
Tue, Dec 24, 2019 KJYO KJYO 20:36 21:21 0.69 hrs 0.52 hrs 66.20 nm 6.68 gal 9.64 gal/hr 0.10 gal/nm 3535 msl 119 kts
Tue, Dec 24, 2019 KJYO KJYO 20:29 20:36 0.1 hrs 0.00 hrs 0.00 nm 0.21 gal 2.09 gal/hr 0.00 gal/nm 0 msl 0 kts
Fri, Nov 29, 2019 N87 KJYO 15:17 16:50 1.46 hrs 1.20 hrs 161.42 nm 13.92 gal 9.54 gal/hr 0.09 gal/nm 4512 msl 128 kts
Wed, Nov 27, 2019 N87 N87 20:02 20:04 0.03 hrs 0.00 hrs 0.00 nm 0.07 gal 1.97 gal/hr 0.00 gal/nm 0 msl 0 kts
Wed, Nov 27, 2019 KJYO N87 18:31 19:51 1.23 hrs 0.95 hrs 168.04 nm 10.36 gal 8.40 gal/hr 0.06 gal/nm 5039 msl 166 kts
Wed, Nov 27, 2019 KJYO KJYO 18:28 18:30 0.03 hrs 0.00 hrs 0.00 nm 1.90 gal 63.93 gal/hr 0.00 gal/nm 0 msl 0 kts
Wed, Nov 6, 2019 KCHO KJYO 02:54 03:52 0.91 hrs 0.64 hrs 88.02 nm 9.14 gal 10.10 gal/hr 0.10 gal/nm 3652 msl 128 kts
Tue, Nov 5, 2019 KJYO KCHO 22:57 23:55 0.91 hrs 0.62 hrs 79.55 nm 9.22 gal 10.14 gal/hr 0.12 gal/nm 4514 msl 117 kts
Tue, Nov 5, 2019     22:38 22:39 0.02 hrs 0.00 hrs 0.00 nm 0.05 gal 2.69 gal/hr 0.00 gal/nm 0 msl 0 kts
Tue, Nov 5, 2019     22:30 22:31 0.01 hrs 0.00 hrs 0.00 nm 21.05 gal 1943.08 gal/hr 0.00 gal/nm 0 msl 0 kts
Wed, Oct 30, 2019 KJYO KJYO 23:14 01:02 1.67 hrs 1.36 hrs 158.62 nm 19.89 gal 11.94 gal/hr 0.13 gal/nm 4096 msl 107 kts
Wed, Oct 30, 2019     23:03 23:03 0 hrs 0.00 hrs 0.00 nm 0.02 gal 6.00 gal/hr 0.00 gal/nm 0 msl 0 kts
Tue, Oct 29, 2019 KCHO KJYO 01:09 02:30 1.24 hrs 1.01 hrs 130.03 nm 13.24 gal 10.67 gal/hr 0.10 gal/nm 5605 msl 119 kts
Mon, Oct 28, 2019 KJYO KCHO 23:12 00:35 1.3 hrs 1.04 hrs 133.44 nm 13.49 gal 10.39 gal/hr 0.10 gal/nm 4749 msl 119 kts
Mon, Oct 28, 2019     22:52 22:53 0.01 hrs 0.00 hrs 0.00 nm 0.04 gal 5.76 gal/hr 0.00 gal/nm 0 msl 0 kts
Mon, Oct 28, 2019 KJYO KJYO 10:41 11:49 1.05 hrs 0.69 hrs 90.23 nm 10.00 gal 9.57 gal/hr 0.11 gal/nm 4509 msl 118 kts
Sat, Oct 26, 2019 KJYO KJYO 16:05 16:52 0.71 hrs 0.50 hrs 64.04 nm 6.70 gal 9.41 gal/hr 0.10 gal/nm 3008 msl 116 kts
Fri, Oct 25, 2019 KJYO KJYO 23:12 23:42 0.49 hrs 0.09 hrs 9.03 nm 1.86 gal 3.81 gal/hr 0.21 gal/nm 1397 msl 89 kts
Fri, Oct 25, 2019 KCHO KJYO 01:48 02:51 0.98 hrs 0.66 hrs 90.85 nm 10.04 gal 10.23 gal/hr 0.11 gal/nm 5631 msl 125 kts
Thu, Oct 24, 2019 KJYO KCHO 21:41 22:37 0.86 hrs 0.59 hrs 77.17 nm 9.35 gal 10.94 gal/hr 0.12 gal/nm 4508 msl 119 kts
Thu, Oct 24, 2019 KJYO KJYO 21:38 21:40 0.03 hrs 0.00 hrs 0.00 nm 0.09 gal 2.63 gal/hr 0.00 gal/nm 0 msl 0 kts
Thu, Oct 24, 2019     21:21 21:21 0.01 hrs 0.00 hrs 0.00 nm 9.47 gal 1311.23 gal/hr 0.00 gal/nm 0 msl 0 kts
Sat, Oct 19, 2019 KHGR KJYO 18:55 19:30 0.55 hrs 0.35 hrs 39.02 nm 4.77 gal 8.75 gal/hr 0.12 gal/nm 3608 msl 103 kts
Sat, Oct 19, 2019 KJYO KHGR 16:47 17:35 0.75 hrs 0.45 hrs 56.76 nm 6.12 gal 8.14 gal/hr 0.11 gal/nm 4026 msl 117 kts
Sat, Oct 19, 2019     16:25 16:25 0.01 hrs 0.00 hrs 0.00 nm 0.05 gal 6.92 gal/hr 0.00 gal/nm 0 msl 0 kts
Thu, Oct 17, 2019 KJYO KJYO 17:43 17:46 0.05 hrs 0.00 hrs 0.00 nm 0.08 gal 1.89 gal/hr 0.00 gal/nm 0 msl 0 kts
Thu, Oct 17, 2019 KJYO KJYO 17:40 17:42 0.02 hrs 0.00 hrs 0.00 nm 0.05 gal 2.41 gal/hr 0.00 gal/nm 0 msl 0 kts
Tue, Oct 15, 2019 KJYO KJYO 15:50 17:22 1.45 hrs 0.96 hrs 108.75 nm 13.05 gal 8.99 gal/hr 0.12 gal/nm 5190 msl 107 kts
Tue, Oct 15, 2019     15:32 15:32 0 hrs 0.00 hrs 0.00 nm 8.78 gal 2634.00 gal/hr 0.00 gal/nm 0 msl 0 kts
Sun, Oct 13, 2019 KCHO KJYO 18:59 19:59 0.95 hrs 0.67 hrs 91.20 nm 9.78 gal 10.29 gal/hr 0.11 gal/nm 2788 msl 127 kts
Sun, Oct 13, 2019 KJYO KCHO 15:11 16:24 1.15 hrs 0.75 hrs 88.54 nm 10.59 gal 9.23 gal/hr 0.12 gal/nm 4505 msl 109 kts
Sun, Oct 13, 2019     14:52 14:53 0.01 hrs 0.00 hrs 0.00 nm 1.81 gal 167.08 gal/hr 0.00 gal/nm 0 msl 0 kts
Sun, Oct 6, 2019 KHGR KJYO 14:16 15:06 0.79 hrs 0.43 hrs 41.91 nm 6.20 gal 7.84 gal/hr 0.15 gal/nm 4015 msl 91 kts
Sun, Oct 6, 2019 KJYO KHGR 12:41 13:40 0.94 hrs 0.58 hrs 74.39 nm 8.40 gal 8.95 gal/hr 0.11 gal/nm 5007 msl 122 kts
Thu, Oct 3, 2019     13:34 13:37 0.05 hrs 0.00 hrs 0.00 nm 0.06 gal 1.23 gal/hr 0.00 gal/nm 0 msl 0 kts
Sun, Sep 29, 2019 KOKV KJYO 22:25 23:25 0.93 hrs 0.68 hrs 79.23 nm 9.01 gal 9.67 gal/hr 0.11 gal/nm 3347 msl 107 kts
Sun, Sep 29, 2019 KJYO KOKV 20:08 21:03 0.86 hrs 0.34 hrs 43.09 nm 5.76 gal 6.67 gal/hr 0.13 gal/nm 3001 msl 117 kts
Fri, Sep 20, 2019 CYKZ KJYO 16:13 19:02 2.65 hrs 2.31 hrs 301.85 nm 25.20 gal 9.52 gal/hr 0.08 gal/nm 7055 msl 123 kts
Fri, Sep 20, 2019     16:09 16:10 0.01 hrs 0.00 hrs 0.00 nm 0.05 gal 3.40 gal/hr 0.00 gal/nm 0 msl 0 kts
Fri, Sep 20, 2019 CYRP CYKZ 13:20 15:10 1.74 hrs 1.44 hrs 180.42 nm 16.39 gal 9.42 gal/hr 0.09 gal/nm 6013 msl 119 kts
Fri, Sep 20, 2019 CYRP CYRP 13:14 13:16 0.03 hrs 0.00 hrs 0.00 nm 0.03 gal 1.16 gal/hr 0.00 gal/nm 0 msl 0 kts
Fri, Sep 20, 2019     13:02 13:03 0.01 hrs 0.00 hrs 0.00 nm 0.00 gal 0.05 gal/hr 0.00 gal/nm 0 msl 0 kts
Fri, Sep 20, 2019 CYRP CYRP 12:56 12:59 0.05 hrs 0.00 hrs 0.00 nm 0.02 gal 0.42 gal/hr 0.00 gal/nm 0 msl 0 kts
Fri, Sep 20, 2019     12:54 12:55 0.02 hrs 0.00 hrs 0.00 nm 0.08 gal 4.36 gal/hr 0.00 gal/nm 0 msl 0 kts
Fri, Sep 20, 2019 CYRP CYRP 12:38 12:41 0.05 hrs 0.00 hrs 0.00 nm 0.11 gal 2.23 gal/hr 0.00 gal/nm 0 msl 0 kts
Fri, Sep 20, 2019 CYRP CYRP 12:32 12:33 0.01 hrs 0.00 hrs 0.00 nm 24.27 gal 1648.53 gal/hr 0.00 gal/nm 0 msl 0 kts
Wed, Sep 18, 2019 CYRP CYRP 21:44 21:47 0.04 hrs 0.00 hrs 0.00 nm 0.23 gal 6.18 gal/hr 0.00 gal/nm 0 msl 0 kts
Wed, Sep 18, 2019 KLNS CYRP 12:33 15:54 3.18 hrs 2.74 hrs 315.57 nm 28.49 gal 8.95 gal/hr 0.09 gal/nm 7036 msl 109 kts
Wed, Sep 18, 2019     12:14 12:15 0.01 hrs 0.00 hrs 0.00 nm 8.26 gal 1189.44 gal/hr 0.00 gal/nm 0 msl 0 kts
Fri, Sep 13, 2019 KLNS KLNS 17:27 17:31 0.06 hrs 0.00 hrs 0.00 nm 0.11 gal 1.96 gal/hr 0.00 gal/nm 0 msl 0 kts
Fri, Sep 13, 2019     17:16 17:17 0.01 hrs 0.00 hrs 0.00 nm 0.06 gal 8.64 gal/hr 0.00 gal/nm 0 msl 0 kts
Fri, Sep 13, 2019 KLNS KLNS 12:47 12:51 0.06 hrs 0.00 hrs 0.00 nm 0.11 gal 1.80 gal/hr 0.00 gal/nm 0 msl 0 kts
Fri, Sep 13, 2019 KLNS KLNS 12:40 12:46 0.11 hrs 0.00 hrs 0.00 nm 0.19 gal 1.80 gal/hr 0.00 gal/nm 0 msl 0 kts
Wed, Sep 11, 2019 KLNS KLNS 00:04 00:34 0.48 hrs 0.19 hrs 16.98 nm 2.54 gal 5.24 gal/hr 0.15 gal/nm 1492 msl 90 kts
Tue, Sep 10, 2019 KJYO KLNS 22:57 23:52 0.87 hrs 0.66 hrs 95.74 nm 10.41 gal 11.96 gal/hr 0.11 gal/nm 3507 msl 140 kts
Sun, Sep 8, 2019 KTTN KJYO 16:54 18:26 1.44 hrs 1.26 hrs 153.78 nm 13.41 gal 9.33 gal/hr 0.09 gal/nm 4723 msl 114 kts
Mon, Aug 26, 2019 KOXB KJYO 00:22 02:17 1.8 hrs 1.52 hrs 218.57 nm 17.34 gal 9.61 gal/hr 0.08 gal/nm 6011 msl 135 kts
Sun, Aug 25, 2019     21:57 21:58 0.02 hrs 0.00 hrs 0.00 nm 0.04 gal 1.91 gal/hr 0.00 gal/nm 0 msl 0 kts
Sun, Aug 25, 2019 KJYO KOXB 20:12 21:46 1.47 hrs 1.13 hrs 155.04 nm 12.68 gal 8.65 gal/hr 0.08 gal/nm 7018 msl 127 kts
Sun, Aug 25, 2019 KJYO KJYO 20:08 20:09 0.03 hrs 0.00 hrs 0.00 nm 0.03 gal 1.00 gal/hr 0.00 gal/nm 0 msl 0 kts
Sun, Aug 25, 2019     20:03 20:03 0 hrs 0.00 hrs 0.00 nm 0.07 gal 21.00 gal/hr 0.00 gal/nm 0 msl 0 kts
Wed, Aug 14, 2019 KPBG KJYO 18:21 21:34 3.05 hrs 2.77 hrs 397.33 nm 29.56 gal 9.68 gal/hr 0.07 gal/nm 9018 msl 136 kts
Wed, Aug 14, 2019 KPBG KPBG 17:56 17:58 0.02 hrs 0.00 hrs 0.00 nm 0.00 gal 0.00 gal/hr 0.00 gal/nm 0 msl 0 kts
Wed, Aug 14, 2019 CYHU KPBG 14:58 15:57 0.93 hrs 0.51 hrs 66.85 nm 6.40 gal 6.89 gal/hr 0.10 gal/nm 2513 msl 124 kts
Wed, Aug 14, 2019 CYHU CYHU 14:19 14:20 0.02 hrs 0.00 hrs 0.00 nm 12.83 gal 689.37 gal/hr 0.00 gal/nm 0 msl 0 kts
Sun, Aug 11, 2019 KJYO CYHU 12:30 16:41 3.95 hrs 3.37 hrs 457.31 nm 34.76 gal 8.80 gal/hr 0.08 gal/nm 9064 msl 128 kts
Sun, Aug 11, 2019     12:10 12:11 0.02 hrs 0.00 hrs 0.00 nm 21.29 gal 1143.94 gal/hr 0.00 gal/nm 0 msl 0 kts
Fri, Aug 9, 2019 KJYO KJYO 21:54 22:46 0.83 hrs 0.49 hrs 64.55 nm 7.32 gal 8.78 gal/hr 0.11 gal/nm 2513 msl 125 kts
Fri, Aug 9, 2019     21:31 21:32 0.02 hrs 0.00 hrs 0.00 nm 10.10 gal 542.69 gal/hr 0.00 gal/nm 0 msl 0 kts
Sun, Aug 4, 2019 N87 KJYO 22:31 00:04 1.46 hrs 1.28 hrs 185.92 nm 14.59 gal 9.98 gal/hr 0.08 gal/nm 8026 msl 136 kts
Sun, Aug 4, 2019 N87 N87 22:11 22:14 0.05 hrs 0.00 hrs 0.00 nm 0.09 gal 1.94 gal/hr 0.00 gal/nm 0 msl 0 kts
Sun, Aug 4, 2019 KJYO N87 17:37 19:03 1.36 hrs 1.11 hrs 166.32 nm 15.55 gal 11.47 gal/hr 0.09 gal/nm 7035 msl 141 kts
Sun, Aug 4, 2019 KLNS KJYO 16:24 17:30 1.05 hrs 0.75 hrs 101.87 nm 8.22 gal 7.85 gal/hr 0.08 gal/nm 3043 msl 128 kts
Sun, Aug 4, 2019     16:14 16:14 0 hrs 0.00 hrs 0.00 nm 11.08 gal 3324.00 gal/hr 0.00 gal/nm 0 msl 0 kts
Thu, Aug 1, 2019 KLNS KLNS 19:23 19:27 0.07 hrs 0.00 hrs 0.00 nm 0.26 gal 3.69 gal/hr 0.00 gal/nm 0 msl 0 kts
Thu, Aug 1, 2019 KLNS KLNS 18:03 18:06 0.05 hrs 0.00 hrs 0.00 nm 0.12 gal 2.27 gal/hr 0.00 gal/nm 0 msl 0 kts
Thu, Aug 1, 2019 KHGR KLNS 15:03 16:01 0.93 hrs 0.58 hrs 77.62 nm 6.93 gal 7.47 gal/hr 0.09 gal/nm 2683 msl 128 kts
Thu, Aug 1, 2019     14:59 15:00 0 hrs 0.00 hrs 0.00 nm 0.02 gal 6.55 gal/hr 0.00 gal/nm 0 msl 0 kts
Thu, Aug 1, 2019 KFDK KHGR 13:22 13:55 0.53 hrs 0.33 hrs 39.48 nm 4.49 gal 8.39 gal/hr 0.11 gal/nm 5012 msl 115 kts
Thu, Aug 1, 2019 KFDK KFDK 13:11 13:14 0.04 hrs 0.00 hrs 0.00 nm 0.08 gal 1.87 gal/hr 0.00 gal/nm 0 msl 0 kts
Thu, Aug 1, 2019     12:21 12:21 0 hrs 0.00 hrs 0.00 nm 0.02 gal 6.00 gal/hr 0.00 gal/nm 0 msl 0 kts
Thu, Aug 1, 2019 KJYO KFDK 11:03 12:20 1.21 hrs 1.00 hrs 125.24 nm 11.79 gal 9.78 gal/hr 0.09 gal/nm 5009 msl 118 kts
Thu, Aug 1, 2019     10:50 10:50 0.01 hrs 0.00 hrs 0.00 nm 17.66 gal 2445.23 gal/hr 0.00 gal/nm 0 msl 0 kts
Tue, Jul 30, 2019 KCHO KJYO 00:35 02:06 1.4 hrs 1.06 hrs 142.57 nm 14.11 gal 10.08 gal/hr 0.10 gal/nm 5505 msl 124 kts
Mon, Jul 29, 2019 KJYO KCHO 23:09 00:09 0.93 hrs 0.60 hrs 81.30 nm 8.80 gal 9.42 gal/hr 0.11 gal/nm 6518 msl 120 kts
Sat, Jul 27, 2019     15:26 15:27 0.01 hrs 0.00 hrs 0.00 nm 0.12 gal 11.08 gal/hr 0.00 gal/nm 0 msl 0 kts
Sat, Jul 20, 2019 KJYO KJYO 11:26 12:59 1.46 hrs 0.94 hrs 119.89 nm 11.89 gal 8.13 gal/hr 0.10 gal/nm 4056 msl 120 kts
Wed, Jul 17, 2019 KJYO KJYO 15:29 16:54 1.33 hrs 0.78 hrs 93.87 nm 10.95 gal 8.25 gal/hr 0.12 gal/nm 4048 msl 113 kts
Wed, Jul 17, 2019 KJYO KJYO 15:20 15:21 0.02 hrs 0.00 hrs 0.00 nm 0.05 gal 2.25 gal/hr 0.00 gal/nm 0 msl 0 kts
Sun, Jul 14, 2019 N87 KJYO 21:00 22:23 1.29 hrs 1.15 hrs 157.21 nm 15.80 gal 12.26 gal/hr 0.10 gal/nm 4540 msl 128 kts
Sun, Jul 14, 2019 W93 N87 17:40 19:31 1.75 hrs 1.48 hrs 223.95 nm 19.29 gal 11.05 gal/hr 0.09 gal/nm 9577 msl 143 kts
Sat, Jul 13, 2019 W93 W93 01:03 01:04 0.03 hrs 0.00 hrs 0.00 nm 0.05 gal 1.74 gal/hr 0.00 gal/nm 0 msl 0 kts
Fri, Jul 12, 2019 N87 W93 22:54 00:52 1.78 hrs 1.55 hrs 238.52 nm 21.42 gal 12.03 gal/hr 0.09 gal/nm 6028 msl 139 kts
Fri, Jul 12, 2019 KJYO N87 21:24 22:45 1.28 hrs 1.03 hrs 161.00 nm 14.19 gal 11.12 gal/hr 0.09 gal/nm 5516 msl 147 kts
Wed, Jul 3, 2019 KLNS KJYO 21:42 22:45 0.99 hrs 0.67 hrs 93.65 nm 7.80 gal 7.89 gal/hr 0.08 gal/nm 3012 msl 133 kts
Wed, Jul 3, 2019     21:07 21:07 0 hrs 0.00 hrs 0.00 nm 0.05 gal 15.00 gal/hr 0.00 gal/nm 0 msl 0 kts
Tue, Jun 25, 2019 KLNS KLNS 12:13 12:27 0.23 hrs 0.08 hrs 8.27 nm 1.29 gal 5.60 gal/hr 0.16 gal/nm 1452 msl 104 kts
Mon, Jun 24, 2019     13:26 13:26 0.01 hrs 0.00 hrs 0.00 nm 0.11 gal 9.90 gal/hr 0.00 gal/nm 0 msl 0 kts
Fri, Jun 21, 2019 KLNS KLNS 19:21 19:32 0.19 hrs 0.08 hrs 9.22 nm 1.19 gal 6.46 gal/hr 0.13 gal/nm 1473 msl 107 kts
Fri, Jun 21, 2019 KLNS KLNS 17:40 18:04 0.39 hrs 0.19 hrs 25.52 nm 3.15 gal 8.06 gal/hr 0.12 gal/nm 2520 msl 126 kts
Fri, Jun 21, 2019 KLNS KLNS 16:15 16:30 0.25 hrs 0.00 hrs 0.00 nm 1.22 gal 4.98 gal/hr 0.00 gal/nm 0 msl 0 kts
Fri, Jun 21, 2019 KLNS KLNS 14:31 14:45 0.22 hrs 0.00 hrs 0.00 nm 0.49 gal 2.21 gal/hr 0.00 gal/nm 0 msl 0 kts
Fri, Jun 21, 2019 KLNS KLNS 14:25 14:27 0.04 hrs 0.00 hrs 0.00 nm 0.03 gal 0.86 gal/hr 0.00 gal/nm 0 msl 0 kts
Wed, Jun 19, 2019     15:56 15:56 0 hrs 0.00 hrs 0.00 nm 0.01 gal 3.00 gal/hr 0.00 gal/nm 0 msl 0 kts
Wed, Jun 19, 2019 KLNS KLNS 13:40 15:19 1.62 hrs 0.89 hrs 1.12 nm 0.28 gal 0.17 gal/hr 0.25 gal/nm 17982 msl 0 kts
Mon, Jun 17, 2019     13:35 13:36 0.01 hrs 0.00 hrs 0.00 nm 0.01 gal 1.29 gal/hr 0.00 gal/nm 0 msl 0 kts
Mon, Jun 17, 2019 KLNS KLNS 12:19 12:35 0.25 hrs 0.00 hrs 0.00 nm 1.20 gal 4.83 gal/hr 0.00 gal/nm 0 msl 0 kts
Mon, Jun 17, 2019 KLNS KLNS 12:06 12:08 0.02 hrs 0.00 hrs 0.00 nm 0.05 gal 2.28 gal/hr 0.00 gal/nm 0 msl 0 kts
Sun, Jun 16, 2019 KHGR KLNS 12:37 13:24 0.76 hrs 0.53 hrs 75.43 nm 5.91 gal 7.81 gal/hr 0.08 gal/nm 3043 msl 135 kts
Sun, Jun 16, 2019 KJYO KHGR 11:51 12:22 0.49 hrs 0.35 hrs 45.18 nm 4.38 gal 8.98 gal/hr 0.10 gal/nm 3086 msl 123 kts
Tue, Jun 11, 2019 KIAG KJYO 19:05 21:20 2.15 hrs 1.79 hrs 260.19 nm 21.98 gal 10.23 gal/hr 0.08 gal/nm 5547 msl 138 kts
Tue, Jun 11, 2019 KIAG KIAG 18:54 18:55 0.02 hrs 0.00 hrs 0.00 nm 0.00 gal 0.00 gal/hr 0.00 gal/nm 0 msl 0 kts
Tue, Jun 11, 2019 CYKZ KIAG 15:24 16:33 1.08 hrs 0.65 hrs 89.11 nm 9.85 gal 9.11 gal/hr 0.11 gal/nm 3539 msl 129 kts
Tue, Jun 11, 2019 CYKZ CYKZ 14:56 14:57 0.01 hrs 0.00 hrs 0.00 nm 0.02 gal 1.06 gal/hr 0.00 gal/nm 0 msl 0 kts
Sun, Jun 9, 2019 CYHM CYKZ 19:57 20:44 0.73 hrs 0.41 hrs 52.91 nm 5.58 gal 7.63 gal/hr 0.11 gal/nm 2505 msl 118 kts
Sun, Jun 9, 2019     19:39 19:39 0 hrs 0.00 hrs 0.00 nm 0.05 gal 15.00 gal/hr 0.00 gal/nm 0 msl 0 kts
Sun, Jun 9, 2019 KIAG CYHM 12:31 13:20 0.78 hrs 0.43 hrs 54.42 nm 5.64 gal 7.27 gal/hr 0.10 gal/nm 2556 msl 120 kts
Sat, Jun 8, 2019 KJYO KIAG 18:49 21:13 2.28 hrs 1.91 hrs 260.49 nm 21.03 gal 9.21 gal/hr 0.08 gal/nm 4561 msl 129 kts
Sat, Jun 8, 2019 KJYO KJYO 18:42 18:45 0.06 hrs 0.00 hrs 0.00 nm 0.10 gal 1.79 gal/hr 0.00 gal/nm 0 msl 0 kts
Sat, Jun 8, 2019     18:12 18:13 0.02 hrs 0.00 hrs 0.00 nm 21.80 gal 1171.34 gal/hr 0.00 gal/nm 0 msl 0 kts
Sat, Jun 8, 2019 KJYO KJYO 13:55 13:57 0.03 hrs 0.00 hrs 0.00 nm 0.06 gal 2.02 gal/hr 0.00 gal/nm 0 msl 0 kts
Sun, Jun 2, 2019 KJYO KJYO 12:22 13:20 0.92 hrs 0.52 hrs 65.62 nm 7.77 gal 8.47 gal/hr 0.12 gal/nm 3009 msl 118 kts
Sun, Jun 2, 2019     11:54 11:54 0.01 hrs 0.00 hrs 0.00 nm 15.01 gal 1350.90 gal/hr 0.00 gal/nm 0 msl 0 kts
Fri, May 31, 2019 KHGR KJYO 23:15 00:10 0.87 hrs 0.35 hrs 44.18 nm 5.76 gal 6.62 gal/hr 0.13 gal/nm 2809 msl 117 kts
Fri, May 31, 2019 KHGR KHGR 23:02 23:03 0.02 hrs 0.00 hrs 0.00 nm 12.16 gal 653.37 gal/hr 0.00 gal/nm 0 msl 0 kts
Fri, May 31, 2019 KJYO KHGR 21:32 22:04 0.49 hrs 0.33 hrs 40.77 nm 4.92 gal 9.99 gal/hr 0.12 gal/nm 2812 msl 113 kts
Fri, May 31, 2019 KJYO KJYO 21:06 21:10 0.07 hrs 0.00 hrs 0.00 nm 0.32 gal 4.72 gal/hr 0.00 gal/nm 0 msl 0 kts
Mon, May 27, 2019 KIAG KJYO 19:26 21:40 2 hrs 1.71 hrs 257.28 nm 26.19 gal 13.07 gal/hr 0.10 gal/nm 7705 msl 133 kts
Mon, May 27, 2019     18:59 19:00 0 hrs 0.00 hrs 0.00 nm 9.81 gal 3210.55 gal/hr 0.00 gal/nm 0 msl 0 kts
Sun, May 26, 2019 KBFD 24NY 17:48 18:48 0.93 hrs 0.68 hrs 82.38 nm 9.46 gal 10.18 gal/hr 0.11 gal/nm 4531 msl 112 kts
Sun, May 26, 2019 KJYO KBFD 15:08 17:13 1.94 hrs 1.62 hrs 207.15 nm 24.32 gal 12.53 gal/hr 0.12 gal/nm 6609 msl 118 kts
Sun, May 26, 2019     14:43 14:44 0.01 hrs 0.00 hrs 0.00 nm 27.35 gal 1857.74 gal/hr 0.00 gal/nm 0 msl 0 kts
Thu, May 23, 2019 KHGR KJYO 23:53 01:29 1.48 hrs 1.12 hrs 134.85 nm 16.13 gal 10.89 gal/hr 0.12 gal/nm 5513 msl 111 kts
Thu, May 23, 2019 KJYO KHGR 23:09 23:49 0.62 hrs 0.37 hrs 44.87 nm 5.37 gal 8.66 gal/hr 0.12 gal/nm 3510 msl 112 kts
Tue, May 21, 2019 KJYO KJYO 23:12 02:22 2.93 hrs 2.07 hrs 284.17 nm 27.94 gal 9.54 gal/hr 0.10 gal/nm 6535 msl 126 kts
Sun, May 19, 2019 KHGR KJYO 16:39 17:19 0.64 hrs 0.41 hrs 43.61 nm 5.18 gal 8.14 gal/hr 0.12 gal/nm 2821 msl 101 kts
Sun, May 19, 2019 KJYO KHGR 14:01 15:39 1.54 hrs 1.05 hrs 124.83 nm 14.89 gal 9.64 gal/hr 0.12 gal/nm 3710 msl 112 kts
Sun, May 19, 2019 KJYO KJYO 13:41 13:43 0.03 hrs 0.00 hrs 0.00 nm 0.03 gal 1.16 gal/hr 0.00 gal/nm 0 msl 0 kts
Sun, May 19, 2019     13:22 13:22 0 hrs 0.00 hrs 0.00 nm 1.13 gal 339.00 gal/hr 0.00 gal/nm 0 msl 0 kts
Sat, May 18, 2019 KHGR KJYO 22:57 23:27 0.47 hrs 0.35 hrs 39.72 nm 4.40 gal 9.31 gal/hr 0.11 gal/nm 3513 msl 107 kts
Sat, May 18, 2019 KJYO KHGR 22:12 22:42 0.48 hrs 0.36 hrs 46.67 nm 4.98 gal 10.36 gal/hr 0.11 gal/nm 4511 msl 125 kts
Sat, May 18, 2019 KHGR KJYO 15:06 15:50 0.7 hrs 0.35 hrs 44.00 nm 4.82 gal 6.87 gal/hr 0.11 gal/nm 3012 msl 118 kts
Sat, May 18, 2019 KJYO KHGR 12:37 13:11 0.55 hrs 0.38 hrs 45.46 nm 4.86 gal 8.86 gal/hr 0.11 gal/nm 4351 msl 114 kts
Thu, May 16, 2019     03:06 03:07 0 hrs 0.00 hrs 0.00 nm 0.01 gal 3.27 gal/hr 0.00 gal/nm 0 msl 0 kts
Thu, May 16, 2019 KJYO KJYO 00:08 01:14 1.03 hrs 0.78 hrs 94.32 nm 9.32 gal 9.08 gal/hr 0.10 gal/nm 3125 msl 113 kts
Tue, Apr 30, 2019 KHGR KJYO 00:30 01:20 0.79 hrs 0.42 hrs 39.09 nm 5.44 gal 6.87 gal/hr 0.14 gal/nm 3226 msl 86 kts
Tue, Apr 30, 2019     00:28 00:29 0.01 hrs 0.00 hrs 0.00 nm 17.44 gal 2511.36 gal/hr 0.00 gal/nm 0 msl 0 kts
Mon, Apr 29, 2019 KJYO KHGR 21:06 23:31 2.3 hrs 1.55 hrs 205.17 nm 19.11 gal 8.31 gal/hr 0.09 gal/nm 3488 msl 125 kts
Thu, Apr 25, 2019     02:56 02:56 0.01 hrs 0.00 hrs 0.00 nm 0.02 gal 1.80 gal/hr 0.00 gal/nm 0 msl 0 kts
Sun, Apr 21, 2019 N87 KJYO 23:25 00:54 1.4 hrs 1.23 hrs 163.09 nm 12.99 gal 9.26 gal/hr 0.08 gal/nm 4519 msl 124 kts
Sun, Apr 21, 2019 N87 N87 18:07 18:11 0.07 hrs 0.00 hrs 0.00 nm 0.15 gal 2.24 gal/hr 0.00 gal/nm 0 msl 0 kts
Sun, Apr 21, 2019 KJYO N87 16:26 17:57 1.41 hrs 1.18 hrs 167.03 nm 14.25 gal 10.10 gal/hr 0.09 gal/nm 9510 msl 131 kts
Fri, Apr 19, 2019     13:46 13:47 0.02 hrs 0.00 hrs 0.00 nm 0.14 gal 7.52 gal/hr 0.00 gal/nm 0 msl 0 kts
Thu, Apr 18, 2019 KJZI KJYO 15:06 18:16 2.92 hrs 2.54 hrs 428.72 nm 32.31 gal 11.06 gal/hr 0.08 gal/nm 7555 msl 155 kts
Thu, Apr 18, 2019     14:49 14:49 0.01 hrs 0.00 hrs 0.00 nm 15.91 gal 2202.92 gal/hr 0.00 gal/nm 0 msl 0 kts
Tue, Apr 16, 2019 KJYO KJZI 14:55 18:21 3.14 hrs 2.80 hrs 420.60 nm 35.34 gal 11.25 gal/hr 0.08 gal/nm 6523 msl 136 kts
Tue, Apr 16, 2019 40N KJYO 12:11 13:17 1.05 hrs 0.86 hrs 102.97 nm 9.61 gal 9.12 gal/hr 0.09 gal/nm 5584 msl 114 kts
Tue, Apr 16, 2019 KLNS 40N 11:37 12:07 0.47 hrs 0.20 hrs 28.36 nm 3.21 gal 6.78 gal/hr 0.11 gal/nm 2591 msl 134 kts
Tue, Apr 16, 2019     11:15 11:16 0.01 hrs 0.00 hrs 0.00 nm 15.84 gal 2280.96 gal/hr 0.00 gal/nm 0 msl 0 kts
Mon, Apr 15, 2019 KLNS KLNS 17:39 17:53 0.24 hrs 0.00 hrs 0.00 nm 1.04 gal 4.37 gal/hr 0.00 gal/nm 0 msl 0 kts
Sat, Apr 13, 2019 KJYO KLNS 16:46 17:55 1.09 hrs 0.84 hrs 115.55 nm 10.14 gal 9.27 gal/hr 0.09 gal/nm 5509 msl 130 kts
Fri, Apr 12, 2019 KLNS KJYO 00:38 01:53 1.16 hrs 0.87 hrs 99.50 nm 11.45 gal 9.89 gal/hr 0.12 gal/nm 3731 msl 106 kts
Thu, Apr 11, 2019 KJYO KLNS 23:14 00:19 1.02 hrs 0.70 hrs 104.22 nm 9.46 gal 9.29 gal/hr 0.09 gal/nm 5615 msl 138 kts
Wed, Apr 10, 2019 KJYO KJYO 23:18 01:23 1.93 hrs 1.46 hrs 191.77 nm 20.14 gal 10.42 gal/hr 0.11 gal/nm 6510 msl 121 kts
Wed, Apr 10, 2019 KJYO KJYO 18:08 19:07 0.94 hrs 0.62 hrs 73.71 nm 8.00 gal 8.54 gal/hr 0.11 gal/nm 4436 msl 113 kts
Wed, Apr 10, 2019     17:50 17:50 0.01 hrs 0.00 hrs 0.00 nm 21.78 gal 3015.69 gal/hr 0.00 gal/nm 0 msl 0 kts
Sun, Apr 7, 2019 KJYO KJYO 19:36 22:18 2.54 hrs 1.73 hrs 220.77 nm 23.25 gal 9.14 gal/hr 0.11 gal/nm 7049 msl 120 kts
Sun, Apr 7, 2019     19:31 19:31 0 hrs 0.00 hrs 0.00 nm 0.01 gal 2.97 gal/hr 0.00 gal/nm 0 msl 0 kts
Sun, Apr 7, 2019 KJYO KJYO 19:14 19:18 0.06 hrs 0.00 hrs 0.00 nm 0.07 gal 1.09 gal/hr 0.00 gal/nm 0 msl 0 kts
Sun, Apr 7, 2019     18:58 18:59 0.01 hrs 0.00 hrs 0.00 nm 0.24 gal 22.15 gal/hr 0.00 gal/nm 0 msl 0 kts
Sun, Apr 7, 2019 KJYO KJYO 14:24 16:16 1.77 hrs 0.88 hrs 103.86 nm 13.18 gal 7.45 gal/hr 0.13 gal/nm 3488 msl 110 kts
Sun, Apr 7, 2019 KJYO KJYO 14:11 14:14 0.04 hrs 0.00 hrs 0.00 nm 0.01 gal 0.36 gal/hr 0.00 gal/nm 0 msl 0 kts
Sun, Apr 7, 2019     13:35 13:36 0.01 hrs 0.00 hrs 0.00 nm 11.84 gal 804.23 gal/hr 0.00 gal/nm 0 msl 0 kts
Sat, Apr 6, 2019 KJYO KJYO 19:20 19:26 0.09 hrs 0.00 hrs 0.00 nm 0.07 gal 0.77 gal/hr 0.00 gal/nm 0 msl 0 kts
Fri, Mar 29, 2019 KCHO KJYO 01:04 02:06 0.99 hrs 0.72 hrs 99.65 nm 8.84 gal 8.90 gal/hr 0.09 gal/nm 5024 msl 132 kts
Thu, Mar 28, 2019 KJYO KCHO 23:19 00:33 1.17 hrs 0.85 hrs 102.51 nm 11.47 gal 9.84 gal/hr 0.11 gal/nm 6012 msl 114 kts
Wed, Mar 27, 2019 KSHD KJYO 01:21 02:23 0.96 hrs 0.76 hrs 95.70 nm 9.62 gal 10.00 gal/hr 0.10 gal/nm 5526 msl 118 kts
Tue, Mar 26, 2019 KJYO KSHD 23:39 00:46 1.05 hrs 0.64 hrs 89.62 nm 8.39 gal 7.96 gal/hr 0.09 gal/nm 4517 msl 130 kts
Mon, Mar 18, 2019 KJYO KJYO 23:35 01:59 2.29 hrs 1.54 hrs 167.27 nm 19.16 gal 8.37 gal/hr 0.11 gal/nm 4630 msl 103 kts
Mon, Mar 18, 2019     22:20 22:20 0.01 hrs 0.00 hrs 0.00 nm 0.03 gal 4.15 gal/hr 0.00 gal/nm 0 msl 0 kts
Mon, Mar 18, 2019 KANP KJYO 19:44 20:29 0.71 hrs 0.44 hrs 56.76 nm 5.68 gal 8.05 gal/hr 0.10 gal/nm 2329 msl 117 kts
Mon, Mar 18, 2019     19:32 19:32 0.01 hrs 0.00 hrs 0.00 nm 0.03 gal 4.15 gal/hr 0.00 gal/nm 0 msl 0 kts
Mon, Mar 18, 2019 KANP KANP 19:26 19:29 0.05 hrs 0.00 hrs 0.00 nm 0.02 gal 0.46 gal/hr 0.00 gal/nm 0 msl 0 kts
Mon, Mar 18, 2019 KANP KANP 18:55 19:07 0.2 hrs 0.00 hrs 0.00 nm 0.58 gal 2.95 gal/hr 0.00 gal/nm 0 msl 0 kts
Mon, Mar 18, 2019 KJYO KANP 14:44 15:40 0.89 hrs 0.44 hrs 58.72 nm 6.53 gal 7.37 gal/hr 0.11 gal/nm 2626 msl 123 kts
Mon, Mar 18, 2019     14:29 14:30 0.01 hrs 0.00 hrs 0.00 nm 9.97 gal 920.31 gal/hr 0.00 gal/nm 0 msl 0 kts
Sun, Mar 17, 2019 9W7 KJYO 00:41 02:18 1.52 hrs 1.37 hrs 180.92 nm 16.31 gal 10.76 gal/hr 0.09 gal/nm 8008 msl 124 kts
Sat, Mar 16, 2019 KJYO 9W7 22:43 00:17 1.46 hrs 1.24 hrs 192.04 nm 12.96 gal 8.89 gal/hr 0.07 gal/nm 7038 msl 143 kts
Sat, Mar 16, 2019     22:22 22:23 0.01 hrs 0.00 hrs 0.00 nm 0.16 gal 22.15 gal/hr 0.00 gal/nm 0 msl 0 kts
Thu, Mar 14, 2019 KJYO KJYO 20:55 22:32 1.54 hrs 0.91 hrs 106.98 nm 11.86 gal 7.68 gal/hr 0.11 gal/nm 4215 msl 111 kts
Thu, Mar 14, 2019 KJYO KJYO 20:34 20:36 0.02 hrs 0.00 hrs 0.00 nm 0.47 gal 25.64 gal/hr 0.00 gal/nm 0 msl 0 kts
Thu, Mar 14, 2019 KJYO KJYO 20:26 20:29 0.06 hrs 0.00 hrs 0.00 nm 0.04 gal 0.71 gal/hr 0.00 gal/nm 0 msl 0 kts
Thu, Mar 14, 2019     18:59 18:59 0.01 hrs 0.00 hrs 0.00 nm 0.16 gal 22.15 gal/hr 0.00 gal/nm 0 msl 0 kts
Thu, Mar 14, 2019 KJYO KJYO 18:51 18:54 0.06 hrs 0.00 hrs 0.00 nm 15.40 gal 255.48 gal/hr 0.00 gal/nm 0 msl 0 kts
Tue, Mar 12, 2019     19:47 19:53 0.11 hrs 0.00 hrs 0.00 nm 0.07 gal 0.66 gal/hr 0.00 gal/nm 0 msl 0 kts
Tue, Mar 12, 2019 KLNS KJYO 17:36 18:32 0.87 hrs 0.65 hrs 93.51 nm 7.42 gal 8.52 gal/hr 0.08 gal/nm 6518 msl 135 kts
Tue, Mar 12, 2019 40N KLNS 15:59 16:26 0.41 hrs 0.21 hrs 22.14 nm 2.55 gal 6.17 gal/hr 0.12 gal/nm 1996 msl 97 kts
Sat, Mar 9, 2019 KLNS 40N 16:48 17:11 0.35 hrs 0.21 hrs 26.12 nm 2.90 gal 8.33 gal/hr 0.11 gal/nm 2092 msl 115 kts
Tue, Feb 26, 2019 KLNS KLNS 17:23 17:30 0.12 hrs 0.00 hrs 0.00 nm 0.28 gal 2.44 gal/hr 0.00 gal/nm 0 msl 0 kts
Mon, Feb 25, 2019 KLNS KLNS 14:13 14:24 0.18 hrs 0.00 hrs 0.00 nm 0.98 gal 5.53 gal/hr 0.00 gal/nm 0 msl 0 kts
Fri, Feb 15, 2019 KJYO KLNS 21:41 22:27 0.72 hrs 0.58 hrs 96.28 nm 6.86 gal 9.54 gal/hr 0.07 gal/nm 5515 msl 157 kts
Sun, Feb 10, 2019 40N KJYO 21:40 22:42 0.97 hrs 0.74 hrs 98.80 nm 10.13 gal 10.48 gal/hr 0.10 gal/nm 5514 msl 125 kts
Sun, Feb 10, 2019 KJYO 40N 12:44 13:42 0.9 hrs 0.69 hrs 105.81 nm 7.77 gal 8.65 gal/hr 0.07 gal/nm 4514 msl 143 kts
Mon, Feb 4, 2019 KESN KJYO 22:26 23:18 0.82 hrs 0.59 hrs 82.14 nm 6.71 gal 8.20 gal/hr 0.08 gal/nm 3305 msl 131 kts
Mon, Feb 4, 2019 KJYO KESN 21:00 22:05 1.04 hrs 0.75 hrs 106.61 nm 8.51 gal 8.20 gal/hr 0.08 gal/nm 5045 msl 134 kts
Sun, Feb 3, 2019 KHGR KJYO 21:32 22:21 0.78 hrs 0.33 hrs 40.82 nm 4.83 gal 6.22 gal/hr 0.12 gal/nm 2978 msl 117 kts
Sun, Feb 3, 2019 KHGR KHGR 21:04 21:11 0.12 hrs 0.00 hrs 0.00 nm 0.08 gal 0.68 gal/hr 0.00 gal/nm 0 msl 0 kts
Sun, Feb 3, 2019     20:56 20:56 0.01 hrs 0.00 hrs 0.00 nm 0.00 gal 0.39 gal/hr 0.00 gal/nm 0 msl 0 kts
Sun, Feb 3, 2019 KHGR KHGR 20:48 20:52 0.08 hrs 0.00 hrs 0.00 nm 0.04 gal 0.53 gal/hr 0.00 gal/nm 0 msl 0 kts
Sun, Feb 3, 2019     20:30 20:30 0.01 hrs 0.00 hrs 0.00 nm 0.08 gal 11.08 gal/hr 0.00 gal/nm 0 msl 0 kts
Sun, Feb 3, 2019 KJYO KHGR 18:41 19:39 0.94 hrs 0.33 hrs 47.90 nm 5.60 gal 5.99 gal/hr 0.12 gal/nm 3546 msl 135 kts
Sun, Feb 3, 2019 KJYO KJYO 18:13 18:15 0.04 hrs 0.00 hrs 0.00 nm 0.03 gal 0.79 gal/hr 0.00 gal/nm 0 msl 0 kts
Sun, Feb 3, 2019 KJYO KJYO 18:03 18:06 0.05 hrs 0.00 hrs 0.00 nm 0.08 gal 1.52 gal/hr 0.00 gal/nm 0 msl 0 kts
Sun, Feb 3, 2019     17:42 17:45 0.03 hrs 0.00 hrs 0.00 nm 0.04 gal 1.19 gal/hr 0.00 gal/nm 0 msl 0 kts
Fri, Jan 25, 2019     21:25 21:47 0.36 hrs 0.00 hrs 0.00 nm 1.97 gal 5.48 gal/hr 0.00 gal/nm 0 msl 0 kts
Fri, Jan 25, 2019     21:19 21:24 0.07 hrs 0.00 hrs 0.00 nm 0.25 gal 3.70 gal/hr 0.00 gal/nm 0 msl 0 kts
Thu, Jan 24, 2019     14:35 14:36 0.01 hrs 0.00 hrs 0.00 nm 0.02 gal 1.85 gal/hr 0.00 gal/nm 0 msl 0 kts
Fri, Jan 18, 2019     21:30 21:45 0.25 hrs 0.00 hrs 0.00 nm 0.00 gal 0.01 gal/hr 0.00 gal/nm 0 msl 0 kts
Sun, Jan 6, 2019 KFCI KJYO 16:47 17:52 1.02 hrs 0.83 hrs 107.33 nm 10.52 gal 10.28 gal/hr 0.10 gal/nm 4625 msl 123 kts
Sun, Jan 6, 2019 KJYO KFCI 14:31 15:23 0.81 hrs 0.68 hrs 113.59 nm 8.07 gal 9.99 gal/hr 0.07 gal/nm 5514 msl 153 kts
Sun, Jan 6, 2019 KJYO KJYO 14:18 14:24 0.09 hrs 0.00 hrs 0.00 nm 0.16 gal 1.67 gal/hr 0.00 gal/nm 0 msl 0 kts
Sun, Jan 6, 2019 KJYO KJYO 13:00 14:03 1.01 hrs 0.51 hrs 65.55 nm 6.81 gal 6.76 gal/hr 0.10 gal/nm 3003 msl 121 kts
Fri, Jan 4, 2019     21:07 21:21 0.23 hrs 0.00 hrs 0.00 nm 2.10 gal 9.25 gal/hr 0.00 gal/nm 0 msl 0 kts
Sun, Dec 30, 2018 KJYO KJYO 19:46 20:36 0.8 hrs 0.42 hrs 56.41 nm 6.06 gal 7.55 gal/hr 0.11 gal/nm 3091 msl 127 kts
Sun, Dec 30, 2018 KJYO KJYO 19:43 19:44 0.03 hrs 0.00 hrs 0.00 nm 0.01 gal 0.19 gal/hr 0.00 gal/nm 0 msl 0 kts
Sun, Dec 30, 2018 KJYO KJYO 19:35 19:40 0.09 hrs 0.00 hrs 0.00 nm 0.09 gal 0.92 gal/hr 0.00 gal/nm 0 msl 0 kts
Sun, Dec 30, 2018     19:13 19:13 0.01 hrs 0.00 hrs 0.00 nm 0.01 gal 1.25 gal/hr 0.00 gal/nm 0 msl 0 kts
Sun, Dec 30, 2018 KMRB KJYO 16:57 17:33 0.57 hrs 0.30 hrs 37.69 nm 4.62 gal 8.08 gal/hr 0.12 gal/nm 3124 msl 117 kts
Sun, Dec 30, 2018 KHGR KMRB 16:16 16:52 0.56 hrs 0.20 hrs 23.17 nm 3.08 gal 5.50 gal/hr 0.13 gal/nm 2228 msl 111 kts
Sun, Dec 30, 2018 KJYO KHGR 14:21 15:08 0.75 hrs 0.34 hrs 43.26 nm 5.10 gal 6.80 gal/hr 0.12 gal/nm 3812 msl 116 kts
Sun, Dec 30, 2018     13:59 13:59 0 hrs 0.00 hrs 0.00 nm 0.05 gal 15.00 gal/hr 0.00 gal/nm 0 msl 0 kts
Sat, Dec 29, 2018 40N KJYO 22:10 23:08 0.92 hrs 0.73 hrs 102.26 nm 9.58 gal 10.45 gal/hr 0.09 gal/nm 3015 msl 132 kts
Sat, Dec 29, 2018 KJYO 40N 17:50 18:39 0.78 hrs 0.65 hrs 102.65 nm 9.29 gal 11.90 gal/hr 0.09 gal/nm 5511 msl 148 kts
Sat, Dec 29, 2018 KSJB KJYO 15:18 16:46 1.38 hrs 1.30 hrs 175.82 nm 16.54 gal 12.02 gal/hr 0.09 gal/nm 3607 msl 127 kts
Sat, Dec 29, 2018 N87 KSJB 13:39 15:07 1.39 hrs 0.99 hrs 132.76 nm 13.97 gal 10.07 gal/hr 0.11 gal/nm 5511 msl 126 kts
Tue, Dec 25, 2018 N87 N87 16:45 16:49 0.06 hrs 0.00 hrs 0.00 nm 0.11 gal 1.74 gal/hr 0.00 gal/nm 0 msl 0 kts
Tue, Dec 25, 2018 KJYO N87